Eltham High School

Historical Weather Data

                  Temp     Hi    Low   Out         Wind        Wind    Hi    Hi   Wind   Heat          THSW                Rain  Solar   Solar Hi Solar         UV    Hi     Heat    Cool    In     In          Wind  Wind    ISS   Arc.
  Date    Time     Out   Temp   Temp   Hum    Dew Speed   Dir   Run Speed   Dir  Chill  Index    THW  Index   Bar    Rain  Rate   Rad.  Energy    Rad.    UV   Dose   UV     D-D     D-D    Temp   Hum     ET   Samp   Tx   Recept  Int.
------------------------------------------------------------------------------------------------------------------------------------------------------------------------------------------------------------------------------------------
12/05/22 12:30a   13.2   13.4   13.2    95   12.4   0.0   ---  0.00   0.0   ---   13.2   13.3   13.3   11.9  1035.4  0.00   0.0     0     0.00      0     0.0  0.00   0.0   0.108   0.000   25.6    45    0.00   531    1     77.6   30 
12/05/22  1:00a   13.1   13.2   13.1    95   12.3   0.0   ---  0.00   0.0   ---   13.1   13.2   13.2   11.8  1035.1  0.00   0.0     0     0.00      0     0.0  0.00   0.0   0.110   0.000   25.3    45    0.00   535    1     78.2   30 
12/05/22  1:30a   12.5   13.1   12.5    95   11.7   0.0   ---  0.00   0.0   ---   12.5   12.6   12.6   11.3  1035.0  0.00   0.0     0     0.00      0     0.0  0.00   0.0   0.122   0.000   25.6    44    0.00   547    1     80.0   30 
12/05/22  2:00a   12.2   12.5   12.2    95   11.4   0.0   ---  0.00   0.0   ---   12.2   12.3   12.3   10.9  1034.8  0.00   0.0     0     0.00      0     0.0  0.00   0.0   0.128   0.000   25.7    44    0.00   537    1     78.5   30 
12/05/22  2:30a   11.9   12.2   11.9    96   11.3   0.0   ---  0.00   0.0   ---   11.9   12.1   12.1   10.7  1034.6  0.00   0.0     0     0.00      0     0.0  0.00   0.0   0.133   0.000   25.4    44    0.00   515    1     75.3   30 
12/05/22  3:00a   11.9   11.9   11.8    96   11.3   0.0   ---  0.00   0.0   ---   11.9   12.1   12.1   10.7  1034.4  0.00   0.0     0     0.00      0     0.0  0.00   0.0   0.134   0.000   25.5    44    0.00   520    1     76.0   30 
12/05/22  3:30a   12.1   12.1   11.9    96   11.5   0.0   ---  0.00   0.0   ---   12.1   12.3   12.3   10.9  1034.4  0.00   0.0     0     0.00      0     0.0  0.00   0.0   0.130   0.000   25.5    44    0.00   552    1     80.7   30 
12/05/22  4:00a   12.1   12.2   12.1    96   11.5   0.0   ---  0.00   0.0   ---   12.1   12.3   12.3   10.9  1034.2  0.00   0.0     0     0.00      0     0.0  0.00   0.0   0.130   0.000   25.6    44    0.00   532    1     77.8   30 
12/05/22  4:30a   12.1   12.1   12.1    96   11.5   0.0   ---  0.00   0.0   ---   12.1   12.3   12.3   10.9  1034.0  0.00   0.0     0     0.00      0     0.0  0.00   0.0   0.130   0.000   25.6    44    0.00   502    1     73.4   30 
12/05/22  5:00a   12.2   12.2   12.1    96   11.6   0.0   ---  0.00   0.0   ---   12.2   12.3   12.3   10.9  1033.9  0.00   0.0     0     0.00      0     0.0  0.00   0.0   0.127   0.000   25.6    44    0.00   520    1     76.0   30 
12/05/22  5:30a   12.2   12.3   12.2    97   11.8   0.0   ---  0.00   0.0   ---   12.2   12.4   12.4   11.1  1033.7  0.00   0.0     0     0.00      0     0.0  0.00   0.0   0.127   0.000   25.6    43    0.00   532    1     77.8   30 
12/05/22  6:00a   12.2   12.3   12.2    97   11.7   0.0   ---  0.00   0.0   ---   12.2   12.3   12.3   11.0  1033.6  0.00   0.0     0     0.00      0     0.0  0.00   0.0   0.128   0.000   25.6    43    0.00   455    1     66.5   30 
12/05/22  6:30a   12.2   12.3   12.2    97   11.8   0.0   ---  0.00   0.0   ---   12.2   12.4   12.4   11.1  1033.7  0.00   0.0     0     0.00      0     0.0  0.00   0.0   0.127   0.000   25.6    43    0.00   505    1     73.8   30 
12/05/22  7:00a   12.2   12.2   12.2    97   11.7   0.0   ---  0.00   0.0   ---   12.2   12.3   12.3   11.0  1033.4  0.25   0.0     0     0.00      0     0.0  0.00   0.0   0.128   0.000   25.6    43    0.00   518    1     75.7   30 
12/05/22  7:30a   12.2   12.2   12.1    97   11.7   0.0   ---  0.00   0.0   ---   12.2   12.3   12.3   11.1  1033.4  0.00   0.0     5     0.22     14     0.0  0.00   0.0   0.128   0.000   25.6    43    0.00   535    1     78.2   30 
12/05/22  8:00a   12.3   12.3   12.1    97   11.9   0.0   ---  0.00   0.0   ---   12.3   12.5   12.5   12.2  1033.4  0.00   0.0    26     1.12     33     0.0  0.00   0.0   0.125   0.000   25.4    44    0.00   530    1     77.5   30 
12/05/22  8:30a   12.6   12.6   12.3    97   12.1   0.0   ---  0.00   0.0   ---   12.6   12.8   12.8   12.9  1033.2  0.00   0.0    48     2.06     72     0.0  0.00   0.0   0.119   0.000   25.3    44    0.00   531    1     77.6   30 
12/05/22  9:00a   13.0   13.1   12.6    97   12.5   0.0   ---  0.00   0.0   ---   13.0   13.2   13.2   13.9  1033.2  0.00   0.0    82     3.53     98     0.0  0.00   0.0   0.111   0.000   25.2    45    0.00   524    1     76.6   30 
12/05/22  9:30a   13.4   13.4   13.0    97   13.0   0.0   ---  0.00   0.0   ---   13.4   13.6   13.6   14.7  1033.1  0.00   0.0   104     4.47    144     0.0  0.00   0.0   0.102   0.000   25.3    45    0.03   522    1     76.3   30 
12/05/22 10:00a   14.3   14.3   13.4    97   13.9   0.0   ---  0.00   0.0   ---   14.3   14.5   14.5   17.2  1032.6  0.00   0.0   210     9.03    274     0.6  0.13   0.8   0.083   0.000   25.2    46    0.08   525    1     76.8   30 
12/05/22 10:30a   14.8   14.8   14.3    97   14.3   0.0   ---  0.00   0.0   ---   14.8   15.0   15.0   19.2  1032.5  0.00   0.0   323    13.89    362     1.1  0.24   1.2   0.074   0.000   25.1    46    0.00   442    1     64.6   30 
12/05/22 11:00a   16.2   16.2   14.8    94   15.3   0.0   ---  0.00   0.0   ---   16.2   16.5   16.5   21.4  1031.8  0.00   0.0   397    17.07    573     1.5  0.32   1.8   0.044   0.000   25.1    47    0.18   411    1     60.1   30 
12/05/22 11:30a   18.3   18.3   16.3    82   15.2   0.0   ---  0.00   0.0   ---   18.3   18.7   18.7   24.7  1031.1  0.00   0.0   574    24.69    664     2.0  0.43   2.4   0.000   0.000   25.2    46    0.00   454    1     66.4   30 
12/05/22 12:00p   18.9   18.9   18.4    76   14.6   0.0   ---  0.00   0.0   ---   18.9   19.2   19.2   22.9  1030.5  0.00   0.0   317    13.63    410     1.7  0.36   2.0   0.000   0.012   25.1    48    0.25   445    1     65.1   30 
12/05/22 12:30p   19.4   19.4   18.8    72   14.3   0.0   ---  0.00   0.0   ---   19.4   19.7   19.7   23.8  1029.9  0.00   0.0   351    15.09    429     1.8  0.39   1.9   0.000   0.023   25.2    48    0.00   424    1     62.0   30 
12/05/22  1:00p   19.9   19.9   19.4    70   14.3   0.0   ---  0.00   0.0   ---   19.9   20.3   20.3   23.6  1029.3  0.00   0.0   277    11.91    311     1.5  0.32   1.7   0.000   0.034   25.2    47    0.18   344    1     50.3   30 
12/05/22  1:30p   19.9   19.9   19.8    70   14.3   0.0   ---  0.00   0.0   ---   19.9   20.3   20.3   23.7  1028.9  0.00   0.0   282    12.13    338     1.4  0.30   1.6   0.000   0.034   25.3    50    0.00   396    1     57.9   30 
12/05/22  2:00p   20.0   20.0   19.7    70   14.4   0.0   ---  0.00   0.0   ---   20.0   20.3   20.3   22.7  1028.7  0.00   0.0   201     8.64    221     0.9  0.19   1.1   0.000   0.035   25.3    49    0.15   451    1     65.9   30 
12/05/22  2:30p   19.8   20.3   19.8    73   14.8   0.0   ---  0.00   0.0   ---   19.8   20.2   20.2   22.7  1028.6  0.00   0.0   203     8.73    255     0.8  0.17   0.9   0.000   0.030   25.1    48    0.00   451    1     65.9   30 
12/05/22  3:00p   18.9   19.7   18.9    75   14.4   0.0   ---  0.00   0.0   ---   18.9   19.2   19.2   20.4  1028.5  0.00   0.0   112     4.82    130     0.1  0.02   0.5   0.000   0.013   25.1    50    0.10   445    1     65.1   30 
12/05/22  3:30p   18.5   18.9   18.5    77   14.4   0.0   ---  0.00   0.0   ---   18.5   18.8   18.8   19.9  1028.4  0.00   0.0    99     4.26    105     0.0  0.00   0.0   0.000   0.003   25.1    50    0.00   466    1     68.1   30 
12/05/22  4:00p   18.1   18.5   18.1    80   14.6   0.0   ---  0.00   0.0   ---   18.1   18.4   18.4   19.2  1028.2  0.00   0.0    74     3.18     84     0.0  0.00   0.0   0.006   0.000   25.1    51    0.05   388    1     56.7   30 
12/05/22  4:30p   17.9   18.1   17.9    81   14.6   0.0   ---  0.00   0.0   ---   17.9   18.3   18.3   18.9  1027.8  0.00   0.0    62     2.67     84     0.0  0.00   0.0   0.008   0.000   25.1    49    0.00   393    1     57.5   30 
12/05/22  5:00p   17.9   17.9   17.9    81   14.6   0.0   ---  0.00   0.0   ---   17.9   18.2   18.2   17.5  1027.8  0.00   0.0    43     1.85     49     0.0  0.00   0.0   0.009   0.000   25.2    49    0.03   503    1     73.5   30 
12/05/22  5:30p   17.2   17.9   17.2    82   14.1   0.0   ---  0.00   0.0   ---   17.2   17.4   17.4   16.2  1027.8  0.00   0.0     7     0.30     18     0.0  0.00   0.0   0.024   0.000   25.1    50    0.00   495    1     72.4   30 
12/05/22  6:00p   16.3   17.2   16.3    85   13.8   0.0   ---  0.00   0.0   ---   16.3   16.4   16.4   15.1  1028.3  0.00   0.0     0     0.00      0     0.0  0.00   0.0   0.043   0.000   25.1    50    0.00   461    1     67.4   30 
12/05/22  6:30p   15.9   16.3   15.9    88   13.9   0.0   ---  0.00   0.0   ---   15.9   16.1   16.1   14.8  1028.7  0.00   0.0     0     0.00      0     0.0  0.00   0.0   0.051   0.000   25.2    49    0.00   439    1     64.2   30 
12/05/22  7:00p   16.1   16.1   15.9    89   14.2   0.0   ---  0.00   0.0   ---   16.1   16.3   16.3   15.0  1028.9  0.00   0.0     0     0.00      0     0.0  0.00   0.0   0.047   0.000   25.2    49    0.00   427    1     62.4   30 
12/05/22  7:30p   16.0   16.1   16.0    91   14.5   0.0   ---  0.00   0.0   ---   16.0   16.2   16.2   14.9  1029.1  0.00   0.0     0     0.00      0     0.0  0.00   0.0   0.049   0.000   25.2    49    0.00   386    1     56.4   30 
12/05/22  8:00p   15.9   16.0   15.9    91   14.5   0.0   ---  0.00   0.0   ---   15.9   16.2   16.2   14.9  1029.2  0.00   0.0     0     0.00      0     0.0  0.00   0.0   0.050   0.000   25.3    49    0.00   323    1     47.2   30 
12/05/22  8:30p   15.9   15.9   15.9    91   14.4   0.0   ---  0.00   0.0   ---   15.9   16.1   16.1   14.8  1029.3  0.00   0.0     0     0.00      0     0.0  0.00   0.0   0.051   0.000   25.2    49    0.00   383    1     56.0   30 
12/05/22  9:00p   15.9   15.9   15.9    91   14.4   0.0   ---  0.00   0.0   ---   15.9   16.1   16.1   14.8  1029.4  0.00   0.0     0     0.00      0     0.0  0.00   0.0   0.051   0.000   25.3    48    0.00   407    1     59.5   30 
12/05/22  9:30p   15.8   15.9   15.8    92   14.5   0.0   ---  0.00   0.0   ---   15.8   16.1   16.1   14.8  1029.5  0.00   0.0     0     0.00      0     0.0  0.00   0.0   0.052   0.000   25.2    49    0.00   442    1     64.6   30 
12/05/22 10:00p   15.8   15.8   15.8    92   14.5   0.0   ---  0.00   0.0   ---   15.8   16.0   16.0   14.7  1029.4  0.00   0.0     0     0.00      0     0.0  0.00   0.0   0.053   0.000   25.4    48    0.00   515    1     75.3   30 
12/05/22 10:30p   15.6   15.8   15.6    93   14.5   0.0   ---  0.00   0.0   ---   15.6   15.8   15.8   14.6  1029.2  0.00   0.0     0     0.00      0     0.0  0.00   0.0   0.057   0.000   25.2    48    0.00   557    1     81.4   30 
12/05/22 11:00p   15.5   15.7   15.5    93   14.4   0.0   ---  0.00   0.0   ---   15.5   15.7   15.7   14.4  1029.1  0.00   0.0     0     0.00      0     0.0  0.00   0.0   0.059   0.000   25.3    48    0.00   556    1     81.3   30 
12/05/22 11:30p   15.4   15.6   15.4    94   14.5   0.0   ---  0.00   0.0   ---   15.4   15.7   15.7   14.4  1028.8  0.00   0.0     0     0.00      0     0.0  0.00   0.0   0.060   0.000   25.4    48    0.00   543    1     79.4   30 
13/05/22 12:00a   15.3   15.4   15.3    94   14.3   0.0   ---  0.00   0.0   ---   15.3   15.5   15.5   14.2  1028.4  0.00   0.0     0     0.00      0     0.0  0.00   0.0   0.064   0.000   25.3    48    0.00   538    1     78.7   30 
13/05/22 12:30a   15.1   15.3   15.1    94   14.1   0.0   ---  0.00   0.0   ---   15.1   15.3   15.3   14.0  1028.4  0.00   0.0     0     0.00      0     0.0  0.00   0.0   0.068   0.000   25.2    48    0.00   512    1     74.9   30 
13/05/22  1:00a   14.9   15.1   14.8    94   13.9   0.0   ---  0.00   0.0   ---   14.9   15.1   15.1   13.8  1028.2  0.00   0.0     0     0.00      0     0.0  0.00   0.0   0.072   0.000   25.3    48    0.00   470    1     68.7   30 
13/05/22  1:30a   14.7   14.9   14.7    95   13.9   0.0   ---  0.00   0.0   ---   14.7   14.9   14.9   13.7  1028.0  0.00   0.0     0     0.00      0     0.0  0.00   0.0   0.075   0.000   25.3    48    0.00   536    1     78.4   30 
13/05/22  2:00a   14.7   14.7   14.7    95   13.9   0.0   ---  0.00   0.0   ---   14.7   14.8   14.8   13.5  1028.2  0.00   0.0     0     0.00      0     0.0  0.00   0.0   0.076   0.000   25.2    48    0.00   520    1     76.0   30 
13/05/22  2:30a   14.7   14.7   14.7    95   13.9   0.0   ---  0.00   0.0   ---   14.7   14.8   14.8   13.5  1028.3  0.00   0.0     0     0.00      0     0.0  0.00   0.0   0.076   0.000   25.3    48    0.00   519    1     75.9   30 
13/05/22  3:00a   14.6   14.7   14.6    95   13.8   0.0   ---  0.00   0.0   ---   14.6   14.7   14.7   13.4  1028.0  0.00   0.0     0     0.00      0     0.0  0.00   0.0   0.079   0.000   25.3    48    0.00   491    1     71.8   30 
13/05/22  3:30a   14.5   14.6   14.5    95   13.7   0.0   ---  0.00   0.0   ---   14.5   14.7   14.7   13.3  1028.1  0.00   0.0     0     0.00      0     0.0  0.00   0.0   0.080   0.000   25.3    48    0.00   493    1     72.1   30 
13/05/22  4:00a   14.5   14.5   14.5    95   13.7   0.0   ---  0.00   0.0   ---   14.5   14.7   14.7   13.3  1028.0  0.00   0.0     0     0.00      0     0.0  0.00   0.0   0.080   0.000   25.3    48    0.00   512    1     74.9   30 
13/05/22  4:30a   14.5   14.6   14.5    95   13.7   0.0   ---  0.00   0.0   ---   14.5   14.7   14.7   13.3  1028.1  0.00   0.0     0     0.00      0     0.0  0.00   0.0   0.080   0.000   25.5    48    0.00   529    1     77.3   30 
13/05/22  5:00a   14.5   14.6   14.4    95   13.7   0.0   ---  0.00   0.0   ---   14.5   14.7   14.7   13.3  1028.2  0.00   0.0     0     0.00      0     0.0  0.00   0.0   0.080   0.000   25.4    48    0.00   524    1     76.6   30 
13/05/22  5:30a   14.4   14.5   14.4    96   13.8   0.0   ---  0.00   0.0   ---   14.4   14.6   14.6   13.3  1028.3  0.00   0.0     0     0.00      0     0.0  0.00   0.0   0.081   0.000   25.3    48    0.00   521    1     76.2   30 
13/05/22  6:00a   14.4   14.4   14.4    96   13.8   0.0   ---  0.00   0.0   ---   14.4   14.6   14.6   13.3  1028.2  0.00   0.0     0     0.00      0     0.0  0.00   0.0   0.081   0.000   25.2    48    0.00   495    1     72.4   30 
13/05/22  6:30a   14.4   14.4   14.4    96   13.8   0.0   ---  0.00   0.0   ---   14.4   14.6   14.6   13.2  1028.6  0.25   0.0     0     0.00      0     0.0  0.00   0.0   0.082   0.000   25.3    47    0.00   523    1     76.5   30 
13/05/22  7:00a   14.4   14.4   14.3    96   13.8   0.0   ---  0.00   0.0   ---   14.4   14.6   14.6   13.2  1029.1  0.00   0.0     0     0.00      0     0.0  0.00   0.0   0.082   0.000   25.5    48    0.00   518    1     75.7   30 
13/05/22  7:30a   14.3   14.4   14.3    96   13.7   0.0   ---  0.00   0.0   ---   14.3   14.5   14.5   13.2  1029.7  0.25   0.0     3     0.13     11     0.0  0.00   0.0   0.083   0.000   25.4    48    0.00   525    1     76.8   30 
13/05/22  8:00a   14.6   14.6   14.3    96   13.9   0.0   ---  0.00   0.0   ---   14.6   14.7   14.7   14.6  1029.7  0.00   0.0    30     1.29     44     0.0  0.00   0.0   0.079   0.000   25.3    47    0.00   562    1     82.2   30 
13/05/22  8:30a   14.6   14.6   14.6    96   13.9   0.0   ---  0.00   0.0   ---   14.6   14.7   14.7   14.6  1030.2  0.00   0.0    34     1.46     46     0.0  0.00   0.0   0.079   0.000   25.2    48    0.00   545    1     79.7   30 
13/05/22  9:00a   14.8   14.8   14.6    96   14.1   0.0   ---  0.00   0.0   ---   14.8   15.0   15.0   15.1  1030.4  0.00   0.0    50     2.15     54     0.0  0.00   0.0   0.074   0.000   25.1    48    0.03   505    1     73.8   30 
13/05/22  9:30a   14.9   14.9   14.8    96   14.3   0.0   ---  0.00   0.0   ---   14.9   15.2   15.2   15.7  1030.1  0.00   0.0    76     3.27    107     0.0  0.00   0.0   0.071   0.000   25.2    50    0.00   451    1     65.9   30 
13/05/22 10:00a   15.1   15.1   14.9    96   14.4   0.0   ---  0.00   0.0   ---   15.1   15.3   15.3   16.1  1030.0  0.00   0.0    94     4.04    130     0.0  0.00   0.0   0.068   0.000   25.1    50    0.05   440    1     64.3   30 
13/05/22 10:30a   15.3   15.3   15.1    96   14.7   0.0   ---  0.00   0.0   ---   15.3   15.6   15.6   16.1  1029.9  0.00   0.0    87     3.74    107     0.0  0.00   0.0   0.063   0.000   25.2    49    0.00   430    1     62.9   30 
13/05/22 11:00a   15.5   15.5   15.3    96   14.9   0.0   ---  0.00   0.0   ---   15.5   15.7   15.7   16.1  1029.6  0.25   0.0    78     3.35    118     0.1  0.02   0.5   0.059   0.000   25.1    51    0.05   437    1     63.9   30 
13/05/22 11:30a   15.9   16.0   15.5    96   15.3   0.0   ---  0.00   0.0   ---   15.9   16.2   16.2   18.5  1028.6  0.00   0.0   207     8.90    306     1.1  0.24   1.4   0.051   0.000   25.2    51    0.00   486    1     71.1   30 
13/05/22 12:00p   16.1   16.1   15.8    95   15.3   0.0   ---  0.00   0.0   ---   16.1   16.4   16.4   19.2  1027.8  0.00   0.0   241    10.36    397     1.1  0.24   1.5   0.046   0.000   25.1    50    0.13   350    1     51.2   30 
13/05/22 12:30p   16.7   16.7   16.1    94   15.7   0.0   ---  0.00   0.0   ---   16.7   17.1   17.1   19.3  1027.4  0.00   0.0   206     8.86    257     1.0  0.21   1.2   0.035   0.000   25.1    50    0.00   363    1     53.1   30 
13/05/22  1:00p   17.2   17.2   16.6    91   15.7   0.0   ---  0.00   0.0   ---   17.2   17.6   17.6   20.2  1027.1  0.00   0.0   225     9.68    316     1.2  0.26   1.6   0.023   0.000   25.0    52    0.10   318    1     46.5   30 
13/05/22  1:30p   17.6   17.7   17.2    88   15.6   0.0   ---  0.00   0.0   ---   17.6   18.0   18.0   19.3  1026.9  0.00   0.0   138     5.93    188     0.7  0.15   0.8   0.015   0.000   25.3    55    0.00   337    1     49.3   30 
13/05/22  2:00p   17.6   17.6   17.6    88   15.6   0.0   ---  0.00   0.0   ---   17.6   18.0   18.0   19.6  1026.7  0.00   0.0   146     6.28    264     0.5  0.11   1.0   0.015   0.000   25.3    54    0.08   406    1     59.4   30 
13/05/22  2:30p   17.4   17.6   17.3    90   15.7   0.0   ---  0.00   0.0   ---   17.4   17.8   17.8   19.0  1026.7  0.00   0.0   117     5.03    192     0.2  0.04   0.6   0.020   0.000   25.3    53    0.00   365    1     53.4   30 
13/05/22  3:00p   17.1   17.4   17.1    92   15.8   0.0   ---  0.00   0.0   ---   17.1   17.5   17.5   19.1  1026.5  0.00   0.0   129     5.55    260     0.3  0.06   0.8   0.025   0.000   25.2    52    0.08   366    1     53.5   30 
13/05/22  3:30p   17.2   17.3   17.1    92   15.9   0.0   ---  0.00   0.0   ---   17.2   17.6   17.6   19.6  1026.6  0.00   0.0   140     6.02    229     0.1  0.02   0.5   0.023   0.000   25.1    53    0.00   367    1     53.7   30 
13/05/22  4:00p   17.2   17.2   17.2    92   15.9   0.0   ---  0.00   0.0   ---   17.2   17.6   17.6   18.4  1026.4  0.00   0.0    73     3.14    102     0.0  0.00   0.0   0.024   0.000   25.1    56    0.05   387    1     56.6   30 
13/05/22  4:30p   17.4   17.4   17.2    92   16.1   0.0   ---  0.00   0.0   ---   17.4   17.8   17.8   18.9  1026.5  0.00   0.0    79     3.40     93     0.0  0.00   0.0   0.020   0.000   25.2    54    0.00   329    1     48.1   30 
13/05/22  5:00p   17.6   17.6   17.4    91   16.1   0.0   ---  0.00   0.0   ---   17.6   18.0   18.0   17.3  1026.4  0.00   0.0    41     1.76     84     0.0  0.00   0.0   0.016   0.000   25.2    55    0.03   346    1     50.6   30 
13/05/22  5:30p   17.4   17.6   17.4    91   15.9   0.0   ---  0.00   0.0   ---   17.4   17.8   17.8   16.7  1026.7  0.00   0.0     6     0.26     18     0.0  0.00   0.0   0.020   0.000   25.2    53    0.00   340    1     49.7   30 
13/05/22  6:00p   17.2   17.4   17.2    92   15.9   0.0   ---  0.00   0.0   ---   17.2   17.6   17.6   16.3  1027.7  0.00   0.0     0     0.00      0     0.0  0.00   0.0   0.023   0.000   25.2    54    0.00   376    1     55.0   30 
13/05/22  6:30p   16.9   17.2   16.9    92   15.6   0.0   ---  0.00   0.0   ---   16.9   17.3   17.3   16.1  1027.9  0.00   0.0     0     0.00      0     0.0  0.00   0.0   0.029   0.000   25.2    52    0.00   362    1     52.9   30 
13/05/22  7:00p   16.4   16.9   16.4    93   15.3   0.0   ---  0.00   0.0   ---   16.4   16.7   16.7   15.4  1028.1  0.00   0.0     0     0.00      0     0.0  0.00   0.0   0.041   0.000   25.2    54    0.00   407    1     59.5   30 
13/05/22  7:30p   15.8   16.4   15.8    93   14.6   0.0   ---  0.00   0.0   ---   15.8   16.0   16.0   14.7  1027.6  0.00   0.0     0     0.00      0     0.0  0.00   0.0   0.053   0.000   25.2    53    0.00   452    1     66.1   30 
13/05/22  8:00p   15.4   15.8   15.4    94   14.5   0.0   ---  0.00   0.0   ---   15.4   15.7   15.7   14.3  1027.4  0.00   0.0     0     0.00      0     0.0  0.00   0.0   0.060   0.000   25.2    53    0.00   433    1     63.3   30 
13/05/22  8:30p   15.2   15.4   15.2    94   14.3   0.0   ---  0.00   0.0   ---   15.2   15.4   15.4   14.1  1027.5  0.00   0.0     0     0.00      0     0.0  0.00   0.0   0.065   0.000   25.4    52    0.00   421    1     61.5   30 
13/05/22  9:00p   14.9   15.2   14.8    95   14.1   0.0   ---  0.00   0.0   ---   14.9   15.1   15.1   13.8  1026.8  0.00   0.0     0     0.00      0     0.0  0.00   0.0   0.072   0.000   25.4    50    0.00   428    1     62.6   30 
13/05/22  9:30p   14.6   14.9   14.6    95   13.8   0.0   ---  0.00   0.0   ---   14.6   14.7   14.7   13.3  1026.6  0.00   0.0     0     0.00      0     0.0  0.00   0.0   0.079   0.000   25.3    51    0.00   433    1     63.3   30 
13/05/22 10:00p   14.7   14.7   14.4    96   14.0   0.0   ---  0.00   0.0   ---   14.7   14.9   14.9   13.6  1026.8  0.00   0.0     0     0.00      0     0.0  0.00   0.0   0.076   0.000   25.2    51    0.00   441    1     64.5   30 
13/05/22 10:30p   14.2   14.8   14.1    95   13.4   0.0   ---  0.00   0.0   ---   14.2   14.3   14.3   12.9  1026.8  0.00   0.0     0     0.00      0     0.0  0.00   0.0   0.087   0.000   25.4    50    0.00   442    1     64.6   30 
13/05/22 11:00p   14.3   14.3   14.1    96   13.6   0.0   ---  0.00   0.0   ---   14.3   14.4   14.4   13.1  1026.9  0.00   0.0     0     0.00      0     0.0  0.00   0.0   0.084   0.000   25.4    50    0.00   441    1     64.5   30 
13/05/22 11:30p   14.0   14.3   14.0    96   13.4   0.0   ---  0.00   0.0   ---   14.0   14.2   14.2   12.8  1027.0  0.00   0.0     0     0.00      0     0.0  0.00   0.0   0.090   0.000   25.6    50    0.00   433    1     63.3   30 
14/05/22 12:00a   13.9   14.0   13.8    96   13.3   0.0   ---  0.00   0.0   ---   13.9   14.0   14.0   12.6  1026.3  0.25   0.0     0     0.00      0     0.0  0.00   0.0   0.093   0.000   25.5    50    0.00   423    1     61.8   30 
14/05/22 12:30a   13.4   13.9   13.4    96   12.8   0.0   ---  0.00   0.0   ---   13.4   13.5   13.5   12.1  1026.3  0.00   0.0     0     0.00      0     0.0  0.00   0.0   0.103   0.000   25.4    50    0.00   458    1     67.0   30 
14/05/22  1:00a   13.5   13.6   13.4    97   13.0   0.0   ---  0.00   0.0   ---   13.5   13.7   13.7   12.3  1025.8  0.00   0.0     0     0.00      0     0.0  0.00   0.0   0.101   0.000   25.6    49    0.00   475    1     69.4   30 
14/05/22  1:30a   13.4   13.6   13.4    96   12.8   0.0   ---  0.00   0.0   ---   13.4   13.5   13.5   12.1  1025.2  0.00   0.0     0     0.00      0     0.0  0.00   0.0   0.103   0.000   25.5    49    0.00   502    1     73.4   30 
14/05/22  2:00a   13.4   13.5   13.4    97   13.0   0.0   ---  0.00   0.0   ---   13.4   13.6   13.6   12.2  1024.9  0.00   0.0     0     0.00      0     0.0  0.00   0.0   0.102   0.000   25.4    49    0.00   499    1     73.0   30 
14/05/22  2:30a   13.7   13.7   13.4    97   13.2   0.0   ---  0.00   0.0   ---   13.7   13.8   13.8   12.4  1025.1  0.00   0.0     0     0.00      0     0.0  0.00   0.0   0.097   0.000   25.6    49    0.00   514    1     75.1   30 
14/05/22  3:00a   13.9   13.9   13.7    97   13.4   0.0   ---  0.00   0.0   ---   13.9   14.1   14.1   12.7  1024.8  0.00   0.0     0     0.00      0     0.0  0.00   0.0   0.093   0.000   25.4    49    0.00   528    1     77.2   30 
14/05/22  3:30a   15.7   15.7   13.8    98   15.4   0.0   ---  0.00   0.0   ---   15.7   15.9   15.9   14.7  1024.7  0.00   0.0     0     0.00      0     0.0  0.00   0.0   0.056   0.000   25.6    48    0.00   522    1     76.3   30 
14/05/22  4:00a   16.5   16.5   15.7    95   15.7   0.0   ---  0.00   0.0   ---   16.5   16.8   16.8   15.6  1024.5  0.00   0.0     0     0.00      0     0.0  0.00   0.0   0.038   0.000   25.6    49    0.00   530    1     77.5   30 
14/05/22  4:30a   16.9   16.9   16.5    92   15.6   0.0   ---  0.00   0.0   ---   16.9   17.3   17.3   16.1  1024.6  0.00   0.0     0     0.00      0     0.0  0.00   0.0   0.029   0.000   25.5    49    0.00   496    1     72.5   30 
14/05/22  5:00a   17.0   17.1   16.9    90   15.3   0.0   ---  0.00   0.0   ---   17.0   17.3   17.3   16.1  1024.9  0.00   0.0     0     0.00      0     0.0  0.00   0.0   0.028   0.000   25.4    49    0.00   481    1     70.3   30 
14/05/22  5:30a   17.2   17.2   17.0    87   15.0   0.0   ---  0.00   0.0   ---   17.2   17.6   17.6   16.3  1025.0  0.00   0.0     0     0.00      0     0.0  0.00   0.0   0.023   0.000   25.3    49    0.00   491    1     71.8   30 
14/05/22  6:00a   17.4   17.4   17.2    85   14.8   0.0   ---  0.00   0.0   ---   17.4   17.7   17.7   16.3  1024.3  0.00   0.0     0     0.00      0     0.0  0.00   0.0   0.020   0.000   25.3    49    0.00   476    1     69.6   30 
14/05/22  6:30a   17.6   17.6   17.4    83   14.6   0.0   ---  0.00   0.0   ---   17.6   17.8   17.8   16.5  1024.1  0.00   0.0     0     0.00      0     0.0  0.00   0.0   0.016   0.000   25.5    48    0.00   423    1     61.8   30 
14/05/22  7:00a   17.5   17.6   17.5    82   14.4   0.0   ---  0.00   0.0   ---   17.5   17.8   17.8   16.4  1024.8  0.00   0.0     0     0.00      0     0.0  0.00   0.0   0.017   0.000   25.4    48    0.03   400    1     58.5   30 
14/05/22  7:30a   17.3   17.5   17.3    83   14.4   0.0   ---  0.00   0.0   ---   17.3   17.6   17.6   16.2  1025.0  0.00   0.0     2     0.09      9     0.0  0.00   0.0   0.021   0.000   25.5    49    0.00   409    1     59.8   30 
14/05/22  8:00a   17.3   17.3   17.3    83   14.4   0.0   ---  0.00   0.0   ---   17.3   17.5   17.5   17.1  1024.8  0.00   0.0    19     0.82     28     0.0  0.00   0.0   0.022   0.000   25.5    49    0.00   419    1     61.3   30 
14/05/22  8:30a   17.2   17.3   17.2    83   14.3   0.0   ---  0.00   0.0   ---   17.2   17.4   17.4   17.1  1025.4  0.00   0.0    24     1.03     28     0.0  0.00   0.0   0.023   0.000   25.5    49    0.00   358    1     52.3   30 
14/05/22  9:00a   17.2   17.2   17.2    83   14.3   0.0   ---  0.00   0.0   ---   17.2   17.4   17.4   17.1  1025.8  0.00   0.0    27     1.16     37     0.0  0.00   0.0   0.023   0.000   25.4    49    0.03   480    1     70.2   30 
14/05/22  9:30a   16.8   17.2   16.8    86   14.4   0.0   ---  0.00   0.0   ---   16.8   17.0   17.0   16.7  1025.0  0.25   0.0    34     1.46     42     0.0  0.00   0.0   0.032   0.000   25.4    49    0.00   514    1     75.1   30 
14/05/22 10:00a   16.5   16.8   16.4    87   14.3   0.0   ---  0.00   0.0   ---   16.5   16.7   16.7   16.4  1025.0  0.00   0.0    39     1.68     51     0.0  0.00   0.0   0.038   0.000   25.4    49    0.03   493    1     72.1   30 
14/05/22 10:30a   16.3   16.6   16.3    89   14.5   0.0   ---  0.00   0.0   ---   16.3   16.6   16.6   16.8  1024.5  0.25   0.0    69     2.97     88     0.0  0.00   0.0   0.042   0.000   25.3    49    0.00   530    1     77.5   30 
14/05/22 11:00a   16.2   16.4   16.2    88   14.2   0.0   ---  0.00   0.0   ---   16.2   16.4   16.4   16.7  1024.8  0.25   0.0    79     3.40    114     0.0  0.00   0.5   0.044   0.000   25.2    50    0.05   534    1     78.1   30 
14/05/22 11:30a   16.3   16.3   16.2    88   14.3   0.0   ---  0.00   0.0   ---   16.3   16.4   16.4   16.1  1025.4  0.51   0.0    38     1.63     53     0.0  0.00   0.0   0.043   0.000   25.3    49    0.00   545    1     79.7   30 
14/05/22 12:00p   15.9   16.3   15.9    90   14.3   0.0   ---  0.00   0.0   ---   15.9   16.2   16.2   15.8  1024.9  0.51   1.5    44     1.89     62     0.0  0.00   0.0   0.050   0.000   25.3    49    0.03   555    1     81.1   30 
14/05/22 12:30p   15.7   16.0   15.7    91   14.3   0.0   ---  0.00   0.0   ---   15.7   15.9   15.9   15.8  1023.8  0.76   1.5    59     2.54     74     0.0  0.00   0.0   0.054   0.000   25.5    49    0.00   553    1     80.8   30 
14/05/22  1:00p   15.9   15.9   15.7    90   14.3   0.0   ---  0.00   0.0   ---   15.9   16.1   16.1   15.9  1023.6  0.00   0.0    53     2.28     69     0.0  0.00   0.0   0.051   0.000   25.4    50    0.03   547    1     80.0   30 
14/05/22  1:30p   16.2   16.2   15.9    87   14.0   0.0   ---  0.00   0.0   ---   16.2   16.3   16.3   16.1  1023.2  0.00   0.0    48     2.06     72     0.0  0.00   0.0   0.045   0.000   25.3    50    0.00   504    1     73.7   30 
14/05/22  2:00p   16.4   16.4   16.2    85   13.9   0.0   ---  0.00   0.0   ---   16.4   16.6   16.6   15.9  1023.0  0.00   0.0    26     1.12     30     0.0  0.00   0.0   0.041   0.000   25.3    50    0.03   478    1     69.9   30 
14/05/22  2:30p   16.6   16.7   16.4    84   13.9   0.0   ---  0.00   0.0   ---   16.6   16.8   16.8   16.4  1022.8  0.00   0.0    37     1.59     42     0.0  0.00   0.0   0.036   0.000   25.3    49    0.00   412    1     60.2   30 
14/05/22  3:00p   16.5   16.7   16.4    85   14.0   0.0   ---  0.00   0.0   ---   16.5   16.7   16.7   16.4  1023.0  0.00   0.0    41     1.76     47     0.0  0.00   0.0   0.038   0.000   25.2    49    0.03   413    1     60.4   30 
14/05/22  3:30p   16.9   16.9   16.5    83   14.0   0.0   ---  0.00   0.0   ---   16.9   17.1   17.1   17.3  1023.2  0.00   0.0    59     2.54     76     0.0  0.00   0.0   0.030   0.000   25.3    49    0.00   430    1     62.9   30 
14/05/22  4:00p   17.7   17.7   16.9    78   13.8   0.0   ---  0.00   0.0   ---   17.7   17.9   17.9   19.1  1023.6  0.00   0.0    94     4.04    132     0.0  0.00   0.0   0.013   0.000   25.2    50    0.05   434    1     63.5   30 
14/05/22  4:30p   17.9   17.9   17.7    76   13.7   0.0   ---  0.00   0.0   ---   17.9   18.1   18.1   18.8  1023.8  0.00   0.0    69     2.97     84     0.0  0.00   0.0   0.008   0.000   25.2    50    0.00   438    1     64.0   30 
14/05/22  5:00p   17.7   17.9   17.7    77   13.6   0.0   ---  0.00   0.0   ---   17.7   17.8   17.8   16.7  1023.9  0.00   0.0    22     0.95     40     0.0  0.00   0.0   0.014   0.000   25.2    49    0.03   401    1     58.6   30 
14/05/22  5:30p   17.5   17.7   17.5    77   13.4   0.0   ---  0.00   0.0   ---   17.5   17.6   17.6   16.3  1023.9  0.00   0.0     3     0.13     11     0.0  0.00   0.0   0.017   0.000   25.3    49    0.00   420    1     61.4   30 
14/05/22  6:00p   17.2   17.5   17.2    78   13.4   0.0   ---  0.00   0.0   ---   17.2   17.3   17.3   15.9  1024.4  0.00   0.0     0     0.00      0     0.0  0.00   0.0   0.023   0.000   25.5    48    0.00   384    1     56.1   30 
14/05/22  6:30p   16.9   17.2   16.9    79   13.3   0.0   ---  0.00   0.0   ---   16.9   17.1   17.1   15.7  1025.0  0.00   0.0     0     0.00      0     0.0  0.00   0.0   0.029   0.000   25.4    49    0.00   350    1     51.2   30 
14/05/22  7:00p   16.7   16.9   16.6    82   13.6   0.0   ---  0.00   0.0   ---   16.7   16.8   16.8   15.4  1025.3  0.00   0.0     0     0.00      0     0.0  0.00   0.0   0.035   0.000   25.3    49    0.03   462    1     67.5   30 
14/05/22  7:30p   17.2   17.2   16.7    80   13.7   0.0   ---  0.00   0.0   ---   17.2   17.3   17.3   16.0  1025.5  0.00   0.0     0     0.00      0     0.0  0.00   0.0   0.024   0.000   25.5    48    0.00   392    1     57.3   30 
14/05/22  8:00p   17.4   17.4   17.2    78   13.5   0.0   ---  0.00   0.0   ---   17.4   17.5   17.5   16.2  1025.7  0.00   0.0     0     0.00      0     0.0  0.00   0.0   0.020   0.000   25.5    48    0.03   437    1     63.9   30 
14/05/22  8:30p   17.5   17.5   17.3    77   13.4   0.0   ---  0.00   0.0   ---   17.5   17.6   17.6   16.3  1026.1  0.00   0.0     0     0.00      0     0.0  0.00   0.0   0.017   0.000   25.4    49    0.00   441    1     64.5   30 
14/05/22  9:00p   17.4   17.6   17.4    79   13.8   0.0   ---  0.00   0.0   ---   17.4   17.6   17.6   16.3  1026.4  0.00   0.0     0     0.00      0     0.0  0.00   0.0   0.019   0.000   25.3    49    0.03   424    1     62.0   30 
14/05/22  9:30p   16.9   17.4   16.9    81   13.7   0.0   ---  0.00   0.0   ---   16.9   17.1   17.1   15.8  1026.1  0.25   0.0     0     0.00      0     0.0  0.00   0.0   0.029   0.000   25.2    48    0.00   429    1     62.7   30 
14/05/22 10:00p   16.6   16.9   16.6    84   13.8   0.0   ---  0.00   0.0   ---   16.6   16.7   16.7   15.4  1026.0  0.00   0.0     0     0.00      0     0.0  0.00   0.0   0.037   0.000   25.5    48    0.03   464    1     67.8   30 
14/05/22 10:30p   16.3   16.6   16.3    85   13.8   0.0   ---  0.00   0.0   ---   16.3   16.4   16.4   15.1  1025.8  0.00   0.0     0     0.00      0     0.0  0.00   0.0   0.042   0.000   25.4    48    0.00   446    1     65.2   30 
14/05/22 11:00p   16.2   16.3   16.2    86   13.8   0.0   ---  0.00   0.0   ---   16.2   16.3   16.3   14.9  1025.8  0.00   0.0     0     0.00      0     0.0  0.00   0.0   0.045   0.000   25.6    47    0.03   358    1     52.3   30 
14/05/22 11:30p   15.7   16.2   15.7    87   13.5   0.0   ---  0.00   0.0   ---   15.7   15.8   15.8   14.4  1025.6  0.00   0.0     0     0.00      0     0.0  0.00   0.0   0.056   0.000   25.4    48    0.00   463    1     67.7   30 
15/05/22 12:00a   15.3   15.7   15.3    89   13.5   0.0   ---  0.00   0.0   ---   15.3   15.4   15.4   14.1  1025.5  0.00   0.0     0     0.00      0     0.0  0.00   0.0   0.063   0.000   25.5    48    0.00   489    1     71.5   30 
15/05/22 12:30a   15.2   15.4   15.2    89   13.4   0.0   ---  0.00   0.0   ---   15.2   15.3   15.3   14.0  1025.4  0.00   0.0     0     0.00      0     0.0  0.00   0.0   0.065   0.000   25.6    47    0.00   504    1     73.7   30 
15/05/22  1:00a   14.8   15.2   14.8    90   13.2   0.0   ---  0.00   0.0   ---   14.8   14.9   14.9   13.6  1025.2  0.00   0.0     0     0.00      0     0.0  0.00   0.0   0.073   0.000   25.3    48    0.00   494    1     72.2   30 
15/05/22  1:30a   15.3   15.3   14.8    90   13.7   0.0   ---  0.00   0.0   ---   15.3   15.5   15.5   14.2  1025.6  0.00   0.0     0     0.00      0     0.0  0.00   0.0   0.063   0.000   25.4    48    0.00   507    1     74.1   30 
15/05/22  2:00a   15.4   15.5   15.3    88   13.4   0.0   ---  0.00   0.0   ---   15.4   15.5   15.5   14.2  1025.4  0.00   0.0     0     0.00      0     0.0  0.00   0.0   0.061   0.000   25.5    47    0.00   505    1     73.8   30 
15/05/22  2:30a   15.2   15.4   15.2    88   13.2   0.0   ---  0.00   0.0   ---   15.2   15.2   15.2   13.8  1025.2  0.00   0.0     0     0.00      0     0.0  0.00   0.0   0.066   0.000   25.6    47    0.00   529    1     77.3   30 
15/05/22  3:00a   14.8   15.2   14.8    89   13.0   0.0   ---  0.00   0.0   ---   14.8   14.9   14.9   13.5  1025.1  0.00   0.0     0     0.00      0     0.0  0.00   0.0   0.073   0.000   25.6    47    0.00   512    1     74.9   30 
15/05/22  3:30a   14.6   14.9   14.6    90   13.0   0.0   ---  0.00   0.0   ---   14.6   14.7   14.7   13.3  1024.9  0.00   0.0     0     0.00      0     0.0  0.00   0.0   0.078   0.000   25.6    47    0.00   511    1     74.7   30 
15/05/22  4:00a   14.4   14.7   14.4    90   12.8   0.0   ---  0.00   0.0   ---   14.4   14.5   14.5   13.1  1024.9  0.00   0.0     0     0.00      0     0.0  0.00   0.0   0.081   0.000   25.6    47    0.00   524    1     76.6   30 
15/05/22  4:30a   14.2   14.4   14.1    91   12.8   0.0   ---  0.00   0.0   ---   14.2   14.3   14.3   12.9  1025.0  0.00   0.0     0     0.00      0     0.0  0.00   0.0   0.086   0.000   25.5    47    0.00   514    1     75.1   30 
15/05/22  5:00a   14.2   14.2   14.2    90   12.6   0.0   ---  0.00   0.0   ---   14.2   14.3   14.3   12.9  1024.9  0.00   0.0     0     0.00      0     0.0  0.00   0.0   0.086   0.000   25.5    47    0.00   530    1     77.5   30 
15/05/22  5:30a   14.3   14.3   14.2    90   12.7   0.0   ---  0.00   0.0   ---   14.3   14.3   14.3   12.9  1024.8  0.00   0.0     0     0.00      0     0.0  0.00   0.0   0.084   0.000   25.5    46    0.00   536    1     78.4   30 
15/05/22  6:00a   14.2   14.3   14.1    90   12.5   0.0   ---  0.00   0.0   ---   14.2   14.2   14.2   12.8  1024.8  0.00   0.0     0     0.00      0     0.0  0.00   0.0   0.087   0.000   25.5    46    0.00   532    1     77.8   30 
15/05/22  6:30a   14.2   14.3   14.2    90   12.6   0.0   ---  0.00   0.0   ---   14.2   14.3   14.3   12.9  1025.1  0.00   0.0     0     0.00      0     0.0  0.00   0.0   0.086   0.000   25.4    46    0.00   512    1     74.9   30 
15/05/22  7:00a   13.4   14.2   13.4    91   11.9   0.0   ---  0.00   0.0   ---   13.4   13.4   13.4   12.0  1025.2  0.00   0.0     0     0.00      0     0.0  0.00   0.0   0.103   0.000   25.4    46    0.00   524    1     76.6   30 
15/05/22  7:30a   12.7   13.4   12.7    92   11.4   0.0   ---  0.00   0.0   ---   12.7   12.7   12.7   11.3  1025.2  0.00   0.0     6     0.26     18     0.0  0.00   0.0   0.118   0.000   25.3    46    0.00   534    1     78.1   30 
15/05/22  8:00a   13.3   13.3   12.7    93   12.2   0.0   ---  0.00   0.0   ---   13.3   13.4   13.4   13.7  1025.3  0.00   0.0    50     2.15     83     0.0  0.00   0.0   0.105   0.000   25.3    46    0.03   532    1     77.8   30 
15/05/22  8:30a   15.1   15.1   13.3    92   13.8   0.0   ---  0.00   0.0   ---   15.1   15.2   15.2   17.2  1025.5  0.00   0.0   129     5.55    169     0.0  0.00   0.0   0.068   0.000   25.3    46    0.00   471    1     68.9   30 
15/05/22  9:00a   16.8   16.8   15.1    85   14.3   0.0   ---  0.00   0.0   ---   16.8   17.1   17.1   20.6  1025.4  0.00   0.0   216     9.29    257     0.1  0.02   0.5   0.031   0.000   25.3    46    0.08   430    1     62.9   30 
15/05/22  9:30a   17.7   17.7   16.8    81   14.4   0.0   ---  0.00   0.0   ---   17.7   17.9   17.9   22.3  1025.0  0.00   0.0   294    12.64    338     0.7  0.15   0.8   0.014   0.000   25.4    46    0.00   421    1     61.5   30 
15/05/22 10:00a   18.1   18.1   17.7    78   14.2   0.0   ---  0.00   0.0   ---   18.1   18.3   18.3   23.7  1025.1  0.00   0.0   412    17.72    531     0.9  0.19   1.1   0.006   0.000   25.6    46    0.18   369    1     53.9   30 
15/05/22 10:30a   18.9   18.9   18.1    74   14.2   0.0   ---  0.00   0.0   ---   18.9   19.2   19.2   24.9  1024.7  0.00   0.0   473    20.34    610     1.3  0.28   1.5   0.000   0.013   25.4    47    0.00   471    1     68.9   30 
15/05/22 11:00a   18.6   19.2   18.6    73   13.7   0.0   ---  0.00   0.0   ---   18.6   18.8   18.8   21.4  1024.3  0.00   0.0   223     9.59    575     1.3  0.28   1.7   0.000   0.006   25.4    47    0.20   451    1     65.9   30 
15/05/22 11:30a   18.7   18.7   18.3    73   13.8   0.0   ---  0.00   0.0   ---   18.7   18.9   18.9   21.1  1023.6  0.00   0.0   200     8.60    649     1.0  0.21   2.0   0.000   0.008   25.4    47    0.00   443    1     64.8   30 
15/05/22 12:00p   19.2   19.2   18.7    68   13.1   0.0   ---  0.00   0.0   ---   19.2   19.2   19.2   21.9  1023.2  0.00   0.0   243    10.45    469     1.6  0.34   2.3   0.000   0.017   25.4    47    0.15   422    1     61.7   30 
15/05/22 12:30p   19.4   19.7   19.2    65   12.7   0.0   ---  0.00   0.0   ---   19.4   19.4   19.4   22.6  1022.5  0.00   0.0   271    11.65    708     1.6  0.34   2.3   0.000   0.023   25.2    47    0.00   450    1     65.8   30 
15/05/22  1:00p   20.3   20.3   19.3    63   13.0   0.0   ---  0.00   0.0   ---   20.3   20.2   20.2   23.2  1021.9  0.00   0.0   256    11.01    687     1.3  0.28   2.1   0.000   0.041   25.4    47    0.20   447    1     65.4   30 
15/05/22  1:30p   20.0   20.4   19.9    59   11.7   0.0   ---  0.00   0.0   ---   20.0   19.8   19.8   21.8  1021.5  0.00   0.0   190     8.17    276     1.0  0.21   1.6   0.000   0.035   25.2    47    0.00   442    1     64.6   30 
15/05/22  2:00p   20.2   20.6   20.0    59   11.9   0.0   ---  0.00   0.0   ---   20.2   19.9   19.9   25.0  1021.4  0.00   0.0   421    18.11    584     1.3  0.28   1.8   0.000   0.038   25.3    47    0.18   402    1     58.8   30 
15/05/22  2:30p   20.8   20.8   20.2    57   12.0   0.0   ---  0.00   0.0   ---   20.8   20.3   20.3   25.7  1021.0  0.00   0.0   478    20.56    552     1.2  0.26   1.5   0.000   0.052   25.3    46    0.00   387    1     56.6   30 
15/05/22  3:00p   20.5   20.8   20.1    56   11.4   0.0   ---  0.00   0.0   ---   20.5   20.0   20.0   23.5  1020.9  0.00   0.0   249    10.71    371     0.8  0.17   1.0   0.000   0.045   25.3    47    0.20   406    1     59.4   30 
15/05/22  3:30p   20.6   20.6   20.3    57   11.7   0.0   ---  0.00   0.0   ---   20.6   20.1   20.1   24.1  1020.9  0.00   0.0   262    11.27    311     0.6  0.13   0.8   0.000   0.046   25.2    47    0.00   411    1     60.1   30 
15/05/22  4:00p   19.9   20.6   19.9    60   11.9   0.0   ---  0.00   0.0   ---   19.9   19.7   19.7   21.9  1020.6  0.00   0.0   144     6.19    237     0.1  0.02   0.5   0.000   0.032   25.2    47    0.13   464    1     67.8   30 
15/05/22  4:30p   19.4   19.9   19.4    60   11.5   0.0   ---  0.00   0.0   ---   19.4   19.2   19.2   19.0  1020.7  0.00   0.0    34     1.46     44     0.0  0.00   0.0   0.000   0.023   25.4    46    0.00   469    1     68.6   30 
15/05/22  5:00p   19.1   19.4   19.1    60   11.1   0.0   ---  0.00   0.0   ---   19.1   18.7   18.7   17.6  1021.0  0.00   0.0    23     0.99     33     0.0  0.00   0.0   0.000   0.015   25.2    46    0.03   471    1     68.9   30 
15/05/22  5:30p   18.6   19.0   18.6    61   10.9   0.0   ---  0.00   0.0   ---   18.6   18.2   18.2   16.8  1021.0  0.00   0.0     4     0.17     12     0.0  0.00   0.0   0.000   0.005   25.3    46    0.00   451    1     65.9   30 
15/05/22  6:00p   18.2   18.6   18.2    62   10.8   0.0   ---  0.00   0.0   ---   18.2   17.8   17.8   16.4  1021.4  0.00   0.0     0     0.00      0     0.0  0.00   0.0   0.003   0.000   25.4    46    0.00   455    1     66.5   30 
15/05/22  6:30p   17.8   18.2   17.8    64   10.9   0.0   ---  0.00   0.0   ---   17.8   17.5   17.5   16.1  1021.7  0.00   0.0     0     0.00      0     0.0  0.00   0.0   0.010   0.000   25.4    46    0.00   466    1     68.1   30 
15/05/22  7:00p   17.8   17.8   17.7    65   11.1   0.0   ---  0.00   0.0   ---   17.8   17.5   17.5   16.1  1021.4  0.00   0.0     0     0.00      0     0.0  0.00   0.0   0.012   0.000   25.3    46    0.03   431    1     63.0   30 
15/05/22  7:30p   17.6   17.8   17.6    65   10.9   0.0   ---  0.00   0.0   ---   17.6   17.3   17.3   15.9  1021.5  0.00   0.0     0     0.00      0     0.0  0.00   0.0   0.016   0.000   25.3    45    0.00   425    1     62.1   30 
15/05/22  8:00p   17.6   17.7   17.5    64   10.7   0.0   ---  0.00   0.0   ---   17.6   17.2   17.2   15.8  1021.5  0.00   0.0     0     0.00      0     0.0  0.00   0.0   0.016   0.000   25.4    45    0.03   417    1     61.0   30 
15/05/22  8:30p   17.6   17.6   17.4    63   10.5   0.0   ---  0.00   0.0   ---   17.6   17.2   17.2   15.8  1021.9  0.00   0.0     0     0.00      0     0.0  0.00   0.0   0.015   0.000   25.5    45    0.00   437    1     63.9   30 
15/05/22  9:00p   17.8   17.8   17.6    62   10.4   0.0   ---  0.00   0.0   ---   17.8   17.4   17.4   15.9  1022.2  0.00   0.0     0     0.00      0     0.0  0.00   0.0   0.012   0.000   25.3    45    0.03   445    1     65.1   30 
15/05/22  9:30p   18.0   18.0   17.8    61   10.4   0.0   ---  0.00   0.0   ---   18.0   17.6   17.6   16.1  1022.5  0.00   0.0     0     0.00      0     0.0  0.00   0.0   0.007   0.000   25.3    44    0.00   459    1     67.1   30 
15/05/22 10:00p   16.8   18.1   16.8    71   11.5   0.0   ---  0.00   0.0   ---   16.8   16.6   16.6   15.2  1023.3  0.00   0.0     0     0.00      0     0.0  0.00   0.0   0.032   0.000   25.5    44    0.03   508    1     74.3   30 
15/05/22 10:30p   16.2   16.8   16.2    73   11.4   0.0   ---  0.00   0.0   ---   16.2   16.0   16.0   14.6  1023.4  0.00   0.0     0     0.00      0     0.0  0.00   0.0   0.044   0.000   25.4    44    0.00   456    1     66.7   30 
15/05/22 11:00p   15.9   16.2   15.9    74   11.3   0.0   ---  0.00   0.0   ---   15.9   15.7   15.7   14.3  1023.6  0.00   0.0     0     0.00      0     0.0  0.00   0.0   0.051   0.000   25.3    44    0.03   383    1     56.0   30 
15/05/22 11:30p   15.4   15.8   15.4    75   11.0   0.0   ---  0.00   0.0   ---   15.4   15.2   15.2   13.8  1024.0  0.00   0.0     0     0.00      0     0.0  0.00   0.0   0.060   0.000   25.5    44    0.00   366    1     53.5   30 
16/05/22 12:00a   15.1   15.4   15.1    78   11.2   0.0   ---  0.00   0.0   ---   15.1   14.9   14.9   13.5  1024.6  0.00   0.0     0     0.00      0     0.0  0.00   0.0   0.068   0.000   25.3    44    0.03   446    1     65.2   30 
16/05/22 12:30a   14.7   15.1   14.7    79   11.1   0.0   ---  0.00   0.0   ---   14.7   14.5   14.5   13.1  1024.6  0.00   0.0     0     0.00      0     0.0  0.00   0.0   0.076   0.000   25.5    44    0.00   415    1     60.7   30 
16/05/22  1:00a   14.3   14.7   14.3    82   11.3   0.0   ---  0.00   0.0   ---   14.3   14.2   14.2   12.8  1024.5  0.76  10.9     0     0.00      0     0.0  0.00   0.0   0.083   0.000   25.3    44    0.03   432    1     63.2   30 
16/05/22  1:30a   13.4   14.3   13.4    87   11.3   0.0   ---  0.00   0.0   ---   13.4   13.4   13.4   12.0  1024.3  0.51   6.3     0     0.00      0     0.0  0.00   0.0   0.103   0.000   25.5    44    0.00   531    1     77.6   30 
16/05/22  2:00a   12.2   13.4   12.2    89   10.4   0.0   ---  0.00   0.0   ---   12.2   12.2   12.2   10.8  1024.2  0.00   0.0     0     0.00      0     0.0  0.00   0.0   0.128   0.000   25.6    44    0.00   533    1     77.9   30 
16/05/22  2:30a   11.1   12.2   11.1    90    9.5   0.0   ---  0.00   0.0   ---   11.1   11.2   11.2    9.8  1024.3  0.00   0.0     0     0.00      0     0.0  0.00   0.0   0.150   0.000   25.5    44    0.00   524    1     76.6   30 
16/05/22  3:00a   10.7   11.1   10.7    92    9.4   0.0   ---  0.00   0.0   ---   10.7   10.8   10.8    9.4  1024.1  0.00   0.0     0     0.00      0     0.0  0.00   0.0   0.160   0.000   25.4    44    0.00   525    1     76.8   30 
16/05/22  3:30a   10.7   10.7   10.6    92    9.4   0.0   ---  0.00   0.0   ---   10.7   10.8   10.8    9.4  1023.9  0.00   0.0     0     0.00      0     0.0  0.00   0.0   0.160   0.000   25.3    43    0.00   507    1     74.1   30 
16/05/22  4:00a   10.9   10.9   10.7    93    9.8   0.0   ---  0.00   0.0   ---   10.9   11.1   11.1    9.6  1024.0  0.00   0.0     0     0.00      0     0.0  0.00   0.0   0.155   0.000   25.2    43    0.00   523    1     76.5   30 
16/05/22  4:30a   11.3   11.3   10.9    92   10.0   0.0   ---  0.00   0.0   ---   11.3   11.4   11.4    9.9  1024.4  0.00   0.0     0     0.00      0     0.0  0.00   0.0   0.147   0.000   25.1    43    0.00   527    1     77.0   30 
16/05/22  5:00a   11.6   11.6   11.3    90   10.0   0.0   ---  0.00   0.0   ---   11.6   11.7   11.7   10.2  1024.6  0.00   0.0     0     0.00      0     0.0  0.00   0.0   0.140   0.000   25.0    43    0.00   526    1     76.9   30 
16/05/22  5:30a   12.3   12.3   11.6    87   10.2   0.0   ---  0.00   0.0   ---   12.3   12.3   12.3   10.9  1024.8  0.00   0.0     0     0.00      0     0.0  0.00   0.0   0.125   0.000   25.0    43    0.00   526    1     76.9   30 
16/05/22  6:00a   12.6   12.6   12.3    85   10.1   0.0   ---  0.00   0.0   ---   12.6   12.5   12.5   11.1  1025.1  0.00   0.0     0     0.00      0     0.0  0.00   0.0   0.120   0.000   25.0    43    0.00   522    1     76.3   30 
16/05/22  6:30a   12.4   12.7   12.4    86   10.2   0.0   ---  0.00   0.0   ---   12.4   12.4   12.4   10.9  1025.5  0.00   0.0     0     0.00      0     0.0  0.00   0.0   0.123   0.000   25.0    43    0.00   500    1     73.1   30 
16/05/22  7:00a   12.0   12.4   12.0    87    9.9   0.0   ---  0.00   0.0   ---   12.0   12.0   12.0   10.6  1025.6  0.00   0.0     0     0.00      5     0.0  0.00   0.0   0.132   0.000   24.9    43    0.00   503    1     73.5   30 
16/05/22  7:30a   11.7   12.0   11.7    88    9.8   0.0   ---  0.00   0.0   ---   11.7   11.7   11.7   10.6  1025.9  0.00   0.0    19     0.82     44     0.0  0.00   0.0   0.138   0.000   24.9    43    0.00   498    1     72.8   30 
16/05/22  8:00a   12.3   12.3   11.7    85    9.9   0.0   ---  0.00   0.0   ---   12.3   12.3   12.3   12.4  1026.4  0.00   0.0    49     2.11     67     0.0  0.00   0.0   0.125   0.000   25.0    43    0.00   502    1     73.4   30 
16/05/22  8:30a   13.4   13.4   12.3    82   10.4   0.0   ---  0.00   0.0   ---   13.4   13.3   13.3   15.2  1026.6  0.00   0.0   132     5.68    227     0.0  0.00   0.0   0.103   0.000   25.3    43    0.03   507    1     74.1   30 
16/05/22  9:00a   14.1   14.1   13.4    78   10.3   0.0   ---  0.00   0.0   ---   14.1   13.9   13.9   16.2  1026.7  0.25   0.0   159     6.84    330     0.0  0.00   0.0   0.088   0.000   25.3    43    0.08   453    1     66.2   30 
16/05/22  9:30a   14.7   14.7   14.1    75   10.3   0.0   ---  0.00   0.0   ---   14.7   14.4   14.4   17.3  1026.9  0.00   0.0   203     8.73    288     0.3  0.06   0.6   0.076   0.000   25.3    43    0.00   395    1     57.7   30 
16/05/22 10:00a   14.8   14.8   14.7    73   10.0   0.0   ---  0.00   0.0   ---   14.8   14.5   14.5   16.6  1026.8  0.00   0.0   172     7.40    239     0.6  0.13   0.7   0.073   0.000   25.3    44    0.10   455    1     66.5   30 
16/05/22 10:30a   15.3   15.3   14.8    72   10.3   0.0   ---  0.00   0.0   ---   15.3   14.9   14.9   17.6  1026.8  0.00   0.0   217     9.33    601     0.6  0.13   1.2   0.064   0.000   25.2    44    0.00   458    1     67.0   30 
16/05/22 11:00a   15.4   15.4   15.3    69    9.7   0.0   ---  0.00   0.0   ---   15.4   15.0   15.0   17.2  1026.4  0.00   0.0   198     8.52    230     0.7  0.15   0.9   0.061   0.000   25.2    44    0.13   417    1     61.0   30 
16/05/22 11:30a   16.3   16.3   15.4    66   10.0   0.0   ---  0.00   0.0   ---   16.3   15.9   15.9   21.0  1026.1  0.00   0.0   443    19.05    737     1.3  0.28   2.0   0.042   0.000   25.2    44    0.00   349    1     51.0   30 
16/05/22 12:00p   15.6   16.4   15.6    71   10.3   0.0   ---  0.00   0.0   ---   15.6   15.2   15.2   16.9  1025.7  0.00   0.0   177     7.61    288     0.9  0.19   1.2   0.058   0.000   25.1    44    0.15   400    1     58.5   30 
16/05/22 12:30p   16.2   16.3   15.6    68   10.3   0.0   ---  0.00   0.0   ---   16.2   15.8   15.8   18.4  1025.1  0.00   0.0   237    10.19    422     1.1  0.24   1.9   0.044   0.000   25.1    44    0.00   435    1     63.6   30 
16/05/22  1:00p   15.6   16.4   15.6    69    9.9   0.0   ---  0.00   0.0   ---   15.6   15.2   15.2   17.4  1025.3  0.00   0.0   214     9.20    315     0.8  0.17   1.4   0.057   0.000   25.2    44    0.13   401    1     58.6   30 
16/05/22  1:30p   13.1   15.6   13.1    84   10.4   0.0   ---  0.00   0.0   ---   13.1   13.0   13.0   14.2  1025.3  0.00   0.0   138     5.93    214     0.3  0.06   0.7   0.110   0.000   25.1    44    0.00   481    1     70.3   30 
16/05/22  2:00p   13.4   13.4   13.0    86   11.1   0.0   ---  0.00   0.0   ---   13.4   13.4   13.4   15.1  1024.9  0.00   0.0   159     6.84    295     0.7  0.15   1.4   0.102   0.000   25.1    45    0.08   459    1     67.1   30 
16/05/22  2:30p   14.6   14.6   13.4    79   11.0   0.0   ---  0.00   0.0   ---   14.6   14.4   14.4   16.8  1024.8  0.00   0.0   199     8.56    272     0.6  0.13   1.0   0.079   0.000   25.1    45    0.00   447    1     65.4   30 
16/05/22  3:00p   13.7   14.6   13.7    83   10.9   0.0   ---  0.00   0.0   ---   13.7   13.6   13.6   13.4  1025.3  0.76   4.8    48     2.06     93     0.0  0.00   0.0   0.096   0.000   25.1    44    0.08   477    1     69.7   30 
16/05/22  3:30p   13.7   13.7   13.3    89   11.9   0.0   ---  0.00   0.0   ---   13.7   13.8   13.8   17.0  1025.1  0.76   4.8   212     9.12    378     0.1  0.02   0.5   0.096   0.000   25.2    44    0.00   514    1     75.1   30 
16/05/22  4:00p   13.6   14.0   13.6    87   11.4   0.0   ---  0.00   0.0   ---   13.6   13.6   13.6   15.3  1025.3  0.00   0.0   125     5.38    218     0.0  0.00   0.0   0.100   0.000   25.3    44    0.00   435    1     63.6   30 
16/05/22  4:30p   13.4   13.6   13.4    88   11.5   0.0   ---  0.00   0.0   ---   13.4   13.4   13.4   13.7  1025.4  0.00   0.0    51     2.19     98     0.0  0.00   0.0   0.102   0.000   25.3    45    0.08   436    1     63.7   30 
16/05/22  5:00p   12.9   13.4   12.9    89   11.1   0.0   ---  0.00   0.0   ---   12.9   12.9   12.9   11.8  1025.7  0.00   0.0    19     0.82     32     0.0  0.00   0.0   0.113   0.000   25.3    45    0.03   457    1     66.8   30 
16/05/22  5:30p   12.4   12.9   12.4    91   11.0   0.0   ---  0.00   0.0   ---   12.4   12.4   12.4   11.1  1025.9  0.00   0.0     2     0.09      7     0.0  0.00   0.0   0.124   0.000   25.3    45    0.00   477    1     69.7   30 
16/05/22  6:00p   12.4   12.7   12.4    91   11.0   0.0   ---  0.00   0.0   ---   12.4   12.4   12.4   11.0  1026.7  0.76   2.0     0     0.00      0     0.0  0.00   0.0   0.124   0.000   25.3    45    0.00   517    1     75.6   30 
16/05/22  6:30p   11.6   12.3   11.6    91   10.1   0.0   ---  0.00   0.0   ---   11.6   11.7   11.7   10.2  1027.2  0.00   0.0     0     0.00      0     0.0  0.00   0.0   0.141   0.000   25.3    45    0.00   526    1     76.9   30 
16/05/22  7:00p   10.8   11.6   10.8    91    9.4   0.0   ---  0.00   0.0   ---   10.8   10.9   10.9    9.4  1027.8  0.00   0.0     0     0.00      0     0.0  0.00   0.0   0.156   0.000   25.5    44    0.00   499    1     73.0   30 
16/05/22  7:30p   10.8   10.8   10.7    92    9.5   0.0   ---  0.00   0.0   ---   10.8   10.9   10.9    9.4  1028.1  0.00   0.0     0     0.00      0     0.0  0.00   0.0   0.157   0.000   25.6    44    0.00   477    1     69.7   30 
16/05/22  8:00p   11.0   11.1   10.7    89    9.3   0.0   ---  0.00   0.0   ---   11.0   11.1   11.1    9.6  1029.0  0.25   0.0     0     0.00      0     0.0  0.00   0.0   0.153   0.000   25.6    43    0.00   520    1     76.0   30 
16/05/22  8:30p   10.8   11.0   10.8    90    9.2   0.0   ---  0.00   0.0   ---   10.8   10.9   10.9    9.4  1029.3  0.00   0.0     0     0.00      0     0.0  0.00   0.0   0.157   0.000   25.6    43    0.00   493    1     72.1   30 
16/05/22  9:00p   10.1   10.8   10.1    90    8.5   0.0   ---  0.00   0.0   ---   10.1   10.3   10.3    8.8  1029.4  0.00   0.0     0     0.00      0     0.0  0.00   0.0   0.171   0.000   25.5    43    0.00   522    1     76.3   30 
16/05/22  9:30p    9.4   10.1    9.4    92    8.2   0.0   ---  0.00   0.0   ---    9.4    9.7    9.7    8.1  1029.5  0.00   0.0     0     0.00      0     0.0  0.00   0.0   0.185   0.000   25.6    43    0.00   503    1     73.5   30 
16/05/22 10:00p    8.8    9.4    8.8    92    7.6   0.0   ---  0.00   0.0   ---    8.8    9.0    9.0    7.4  1029.7  0.00   0.0     0     0.00      0     0.0  0.00   0.0   0.198   0.000   25.5    42    0.00   547    1     80.0   30 
16/05/22 10:30p    8.2    8.8    8.2    93    7.2   0.0   ---  0.00   0.0   ---    8.2    8.4    8.4    6.8  1029.9  0.00   0.0     0     0.00      0     0.0  0.00   0.0   0.211   0.000   25.3    42    0.00   547    1     80.0   30 
16/05/22 11:00p    7.6    8.2    7.6    93    6.5   0.0   ---  0.00   0.0   ---    7.6    7.7    7.7    6.1  1029.9  0.00   0.0     0     0.00      0     0.0  0.00   0.0   0.225   0.000   25.2    42    0.00   562    1     82.2   30 
16/05/22 11:30p    7.1    7.5    7.1    94    6.2   0.0   ---  0.00   0.0   ---    7.1    7.2    7.2    5.6  1030.0  0.00   0.0     0     0.00      0     0.0  0.00   0.0   0.235   0.000   25.0    42    0.00   540    1     78.9   30 
17/05/22 12:00a    7.2    7.2    7.0    94    6.3   0.0   ---  0.00   0.0   ---    7.2    7.3    7.3    5.7  1030.1  0.00   0.0     0     0.00      0     0.0  0.00   0.0   0.233   0.000   24.8    42    0.00   570    1     83.3   30 
17/05/22 12:30a    6.7    7.1    6.7    94    5.8   0.0   ---  0.00   0.0   ---    6.7    6.8    6.8    5.2  1030.3  0.00   0.0     0     0.00      0     0.0  0.00   0.0   0.242   0.000   24.6    42    0.00   567    1     82.9   30 
17/05/22  1:00a    6.2    6.7    6.2    95    5.4   0.0   ---  0.00   0.0   ---    6.2    6.2    6.2    4.6  1030.1  0.00   0.0     0     0.00      0     0.0  0.00   0.0   0.253   0.000   24.5    41    0.00   570    1     83.3   30 
17/05/22  1:30a    6.2    6.2    6.1    95    5.4   0.0   ---  0.00   0.0   ---    6.2    6.2    6.2    4.6  1030.2  0.00   0.0     0     0.00      0     0.0  0.00   0.0   0.253   0.000   24.3    41    0.00   568    1     83.0   30 
17/05/22  2:00a    5.7    6.2    5.7    94    4.8   0.0   ---  0.00   0.0   ---    5.7    5.7    5.7    4.1  1030.2  0.00   0.0     0     0.00      0     0.0  0.00   0.0   0.264   0.000   24.2    41    0.00   590    1     86.3   30 
17/05/22  2:30a    5.5    5.7    5.5    95    4.8   0.0   ---  0.00   0.0   ---    5.5    5.6    5.6    3.9  1030.5  0.00   0.0     0     0.00      0     0.0  0.00   0.0   0.267   0.000   24.0    41    0.00   596    1     87.1   30 
17/05/22  3:00a    5.1    5.5    5.1    95    4.3   0.0   ---  0.00   0.0   ---    5.1    5.1    5.1    3.4  1030.4  0.00   0.0     0     0.00      0     0.0  0.00   0.0   0.277   0.000   23.9    41    0.00   583    1     85.2   30 
17/05/22  3:30a    4.5    5.1    4.5    95    3.8   0.0   ---  0.00   0.0   ---    4.5    4.6    4.6    2.8  1030.4  0.25   0.0     0     0.00      0     0.0  0.00   0.0   0.288   0.000   23.7    40    0.00   589    1     86.1   30 
17/05/22  4:00a    4.3    4.5    4.3    95    3.5   0.0   ---  0.00   0.0   ---    4.3    4.3    4.3    2.6  1030.7  0.00   0.0     0     0.00      0     0.0  0.00   0.0   0.293   0.000   23.6    40    0.00   569    1     83.2   30 
17/05/22  4:30a    4.2    4.3    4.2    95    3.5   0.0   ---  0.00   0.0   ---    4.2    4.3    4.3    2.6  1030.8  0.00   0.0     0     0.00      0     0.0  0.00   0.0   0.294   0.000   23.4    40    0.00   599    1     87.6   30 
17/05/22  5:00a    4.1    4.2    4.1    96    3.5   0.0   ---  0.00   0.0   ---    4.1    4.2    4.2    2.4  1031.1  0.00   0.0     0     0.00      0     0.0  0.00   0.0   0.296   0.000   23.3    40    0.00   603    1     88.2   30 
17/05/22  5:30a    5.7    5.7    4.1    97    5.3   0.0   ---  0.00   0.0   ---    5.7    5.8    5.8    4.2  1031.4  0.00   0.0     0     0.00      0     0.0  0.00   0.0   0.263   0.000   23.2    40    0.00   615    1     89.9   30 
17/05/22  6:00a    5.7    6.1    5.7    96    5.1   0.0   ---  0.00   0.0   ---    5.7    5.7    5.7    4.1  1031.6  0.00   0.0     0     0.00      0     0.0  0.00   0.0   0.264   0.000   23.1    40    0.00   619    1     90.5   30 
17/05/22  6:30a    5.8    5.8    5.4    96    5.2   0.0   ---  0.00   0.0   ---    5.8    5.9    5.9    4.2  1032.0  0.00   0.0     0     0.00      0     0.0  0.00   0.0   0.260   0.000   23.1    40    0.00   607    1     88.7   30 
17/05/22  7:00a    5.6    6.0    5.6    96    5.0   0.0   ---  0.00   0.0   ---    5.6    5.6    5.6    3.9  1032.3  0.00   0.0     0     0.00      0     0.0  0.00   0.0   0.266   0.000   23.1    39    0.00   601    1     87.9   30 
17/05/22  7:30a    5.4    5.6    5.3    96    4.9   0.0   ---  0.00   0.0   ---    5.4    5.5    5.5    3.9  1032.4  0.00   0.0     9     0.39     21     0.0  0.00   0.0   0.269   0.000   22.9    39    0.00   587    1     85.8   30 
17/05/22  8:00a    7.2    7.2    5.4    97    6.8   0.0   ---  0.00   0.0   ---    7.2    7.4    7.4    7.3  1032.6  0.00   0.0    44     1.89     74     0.0  0.00   0.0   0.231   0.000   23.1    39    0.00   599    1     87.6   30 
17/05/22  8:30a    8.7    8.7    7.2    96    8.1   0.0   ---  0.00   0.0   ---    8.7    8.9    8.9   10.6  1032.7  0.00   0.0   120     5.16    174     0.0  0.00   0.0   0.200   0.000   23.3    39    0.00   553    1     80.8   30 
17/05/22  9:00a   10.4   10.4    8.7    89    8.7   0.0   ---  0.00   0.0   ---   10.4   10.5   10.5   13.9  1032.9  0.00   0.0   220     9.46    281     0.0  0.00   0.0   0.166   0.000   23.7    39    0.00   515    1     75.3   30 
17/05/22  9:30a   11.6   11.6   10.4    78    7.8   0.0   ---  0.00   0.0   ---   11.6   11.3   11.3   15.3  1032.9  0.00   0.0   281    12.08    390     0.1  0.02   0.7   0.141   0.000   24.1    39    0.08   510    1     74.6   30 
17/05/22 10:00a   12.7   12.7   11.6    71    7.5   0.0   ---  0.00   0.0   ---   12.7   12.3   12.3   15.9  1032.8  0.00   0.0   274    11.78    388     0.7  0.15   0.8   0.118   0.000   24.7    39    0.13   497    1     72.7   30 
17/05/22 10:30a   13.4   13.4   12.7    68    7.6   0.0   ---  0.00   0.0   ---   13.4   12.9   12.9   17.4  1032.7  0.00   0.0   362    15.57    524     1.0  0.21   1.3   0.103   0.000   25.5    38    0.00   422    1     61.7   30 
17/05/22 11:00a   13.9   14.1   13.6    65    7.5   0.0   ---  0.00   0.0   ---   13.9   13.4   13.4   18.7  1032.6  0.00   0.0   477    20.51    506     1.4  0.30   1.5   0.091   0.000   25.4    39    0.23   465    1     68.0   30 
17/05/22 11:30a   14.5   14.5   13.9    64    7.8   0.0   ---  0.00   0.0   ---   14.5   13.9   13.9   19.4  1032.3  0.00   0.0   550    23.65    622     1.7  0.36   1.8   0.080   0.000   25.3    39    0.00   529    1     77.3   30 
17/05/22 12:00p   14.8   14.9   14.4    60    7.1   0.0   ---  0.00   0.0   ---   14.8   14.1   14.1   19.4  1031.9  0.00   0.0   511    21.98    582     1.7  0.36   1.9   0.074   0.000   25.3    39    0.25   505    1     73.8   30 
17/05/22 12:30p   14.3   14.7   14.3    62    7.1   0.0   ---  0.00   0.0   ---   14.3   13.6   13.6   15.7  1031.6  0.00   0.0   207     8.90    334     0.9  0.19   1.2   0.084   0.000   25.2    38    0.00   491    1     71.8   30 
17/05/22  1:00p   14.5   14.7   14.2    59    6.6   0.0   ---  0.00   0.0   ---   14.5   13.7   13.7   15.6  1031.3  0.00   0.0   193     8.30    452     0.7  0.15   1.3   0.080   0.000   25.2    38    0.13   462    1     67.5   30 
17/05/22  1:30p   14.2   14.5   14.2    62    7.0   0.0   ---  0.00   0.0   ---   14.2   13.5   13.5   14.2  1031.4  0.00   0.0   112     4.82    193     0.5  0.11   1.2   0.087   0.000   25.2    39    0.00   453    1     66.2   30 
17/05/22  2:00p   14.7   14.8   14.1    66    8.4   0.0   ---  0.00   0.0   ---   14.7   14.2   14.2   15.2  1031.1  0.00   0.0   122     5.25    227     0.8  0.17   1.5   0.075   0.000   25.2    39    0.10   406    1     59.4   30 
17/05/22  2:30p   13.8   14.7   13.8    70    8.5   0.0   ---  0.00   0.0   ---   13.8   13.4   13.4   15.7  1030.9  0.00   0.0   194     8.34    327     0.6  0.13   1.2   0.094   0.000   25.3    39    0.00   328    1     48.0   30 
17/05/22  3:00p   13.4   13.8   13.4    72    8.4   0.0   ---  0.00   0.0   ---   13.4   13.0   13.0   13.9  1030.8  0.00   0.0   104     4.47    118     0.0  0.00   0.0   0.103   0.000   25.3    38    0.00   360    1     52.6   30 
17/05/22  3:30p   13.5   13.5   13.4    72    8.5   0.0   ---  0.00   0.0   ---   13.5   13.1   13.1   13.2  1030.9  0.00   0.0    56     2.41     72     0.0  0.00   0.0   0.101   0.000   25.4    38    0.08   351    1     51.3   30 
17/05/22  4:00p   13.7   13.7   13.5    64    7.0   0.0   ---  0.00   0.0   ---   13.7   13.1   13.1   12.9  1031.2  0.00   0.0    44     1.89     49     0.0  0.00   0.0   0.097   0.000   25.3    39    0.03   391    1     57.2   30 
17/05/22  4:30p   14.0   14.0   13.7    61    6.6   0.0   ---  0.00   0.0   ---   14.0   13.3   13.3   13.0  1031.2  0.00   0.0    34     1.46     44     0.0  0.00   0.0   0.090   0.000   25.3    38    0.00   426    1     62.3   30 
17/05/22  5:00p   13.8   14.0   13.8    65    7.4   0.0   ---  0.00   0.0   ---   13.8   13.3   13.3   11.9  1031.1  0.00   0.0    15     0.65     26     0.0  0.00   0.0   0.094   0.000   25.3    38    0.03   436    1     63.7   30 
17/05/22  5:30p   13.4   13.8   13.4    68    7.7   0.0   ---  0.00   0.0   ---   13.4   12.9   12.9   11.4  1030.9  0.00   0.0     1     0.04      7     0.0  0.00   0.0   0.102   0.000   25.4    38    0.00   416    1     60.8   30 
17/05/22  6:00p   13.2   13.4   13.2    69    7.6   0.0   ---  0.00   0.0   ---   13.2   12.7   12.7   11.2  1031.1  0.00   0.0     0     0.00      0     0.0  0.00   0.0   0.108   0.000   25.4    38    0.00   392    1     57.3   30 
17/05/22  6:30p   13.0   13.1   13.0    69    7.4   0.0   ---  0.00   0.0   ---   13.0   12.6   12.6   11.0  1031.4  0.00   0.0     0     0.00      0     0.0  0.00   0.0   0.111   0.000   25.5    38    0.00   333    1     48.7   30 
17/05/22  7:00p   13.1   13.1   12.9    67    7.1   0.0   ---  0.00   0.0   ---   13.1   12.6   12.6   11.0  1031.3  0.00   0.0     0     0.00      0     0.0  0.00   0.0   0.110   0.000   25.4    37    0.03   426    1     62.3   30 
17/05/22  7:30p   12.7   13.1   12.7    69    7.1   0.0   ---  0.00   0.0   ---   12.7   12.2   12.2   10.7  1031.4  0.00   0.0     0     0.00      0     0.0  0.00   0.0   0.118   0.000   25.6    37    0.00   469    1     68.6   30 
17/05/22  8:00p   12.3   12.7   12.3    71    7.2   0.0   ---  0.00   0.0   ---   12.3   11.9   11.9   10.4  1031.4  0.00   0.0     0     0.00      0     0.0  0.00   0.0   0.125   0.000   25.6    37    0.03   486    1     71.1   30 
17/05/22  8:30p   12.0   12.3   11.9    74    7.5   0.0   ---  0.00   0.0   ---   12.0   11.7   11.7   10.2  1031.3  0.00   0.0     0     0.00      0     0.0  0.00   0.0   0.132   0.000   25.6    37    0.00   473    1     69.2   30 
17/05/22  9:00p   12.4   12.4   12.0    74    7.9   0.0   ---  0.00   0.0   ---   12.4   12.1   12.1   10.6  1031.3  0.00   0.0     0     0.00      0     0.0  0.00   0.0   0.124   0.000   25.6    37    0.03   503    1     73.5   30 
17/05/22  9:30p   12.3   12.4   12.3    75    8.0   0.0   ---  0.00   0.0   ---   12.3   12.1   12.1   10.6  1031.3  0.00   0.0     0     0.00      0     0.0  0.00   0.0   0.125   0.000   25.5    37    0.00   479    1     70.0   30 
17/05/22 10:00p   12.4   12.4   12.3    75    8.1   0.0   ---  0.00   0.0   ---   12.4   12.1   12.1   10.6  1031.1  0.00   0.0     0     0.00      0     0.0  0.00   0.0   0.124   0.000   25.5    37    0.03   484    1     70.8   30 
17/05/22 10:30p   11.9   12.4   11.9    76    7.8   0.0   ---  0.00   0.0   ---   11.9   11.7   11.7   10.2  1031.1  0.00   0.0     0     0.00      0     0.0  0.00   0.0   0.133   0.000   25.4    37    0.00   483    1     70.6   30 
17/05/22 11:00p   12.2   12.2   11.9    77    8.3   0.0   ---  0.00   0.0   ---   12.2   11.9   11.9   10.4  1031.0  0.00   0.0     0     0.00      0     0.0  0.00   0.0   0.128   0.000   25.4    37    0.03   497    1     72.7   30 
17/05/22 11:30p   12.3   12.3   12.2    77    8.4   0.0   ---  0.00   0.0   ---   12.3   12.1   12.1   10.6  1030.8  0.00   0.0     0     0.00      0     0.0  0.00   0.0   0.125   0.000   25.3    37    0.00   492    1     71.9   30 
18/05/22 12:00a   12.3   12.3   12.3    77    8.4   0.0   ---  0.00   0.0   ---   12.3   12.1   12.1   10.6  1030.8  0.00   0.0     0     0.00      0     0.0  0.00   0.0   0.125   0.000   25.3    37    0.03   467    1     68.3   30 
18/05/22 12:30a   12.4   12.4   12.3    77    8.5   0.0   ---  0.00   0.0   ---   12.4   12.2   12.2   10.7  1030.5  0.00   0.0     0     0.00      0     0.0  0.00   0.0   0.123   0.000   25.3    37    0.00   462    1     67.5   30 
18/05/22  1:00a   12.5   12.6   12.4    77    8.6   0.0   ---  0.00   0.0   ---   12.5   12.3   12.3   10.8  1030.4  0.00   0.0     0     0.00      0     0.0  0.00   0.0   0.122   0.000   25.2    37    0.03   450    1     65.8   30 
18/05/22  1:30a   12.5   12.6   12.5    77    8.6   0.0   ---  0.00   0.0   ---   12.5   12.3   12.3   10.8  1030.1  0.00   0.0     0     0.00      0     0.0  0.00   0.0   0.122   0.000   25.2    37    0.00   464    1     67.8   30 
18/05/22  2:00a   12.6   12.6   12.5    76    8.4   0.0   ---  0.00   0.0   ---   12.6   12.3   12.3   10.8  1030.2  0.00   0.0     0     0.00      0     0.0  0.00   0.0   0.120   0.000   25.2    37    0.03   465    1     68.0   30 
18/05/22  2:30a   12.6   12.6   12.6    76    8.5   0.0   ---  0.00   0.0   ---   12.6   12.3   12.3   10.8  1030.3  0.00   0.0     0     0.00      0     0.0  0.00   0.0   0.119   0.000   25.2    37    0.00   453    1     66.2   30 
18/05/22  3:00a   12.6   12.6   12.6    76    8.4   0.0   ---  0.00   0.0   ---   12.6   12.3   12.3   10.8  1030.3  0.00   0.0     0     0.00      0     0.0  0.00   0.0   0.120   0.000   25.3    37    0.03   470    1     68.7   30 
18/05/22  3:30a   11.6   12.6   11.6    84    8.9   0.0   ---  0.00   0.0   ---   11.6   11.5   11.5   10.1  1030.4  0.76   2.3     0     0.00      0     0.0  0.00   0.0   0.141   0.000   25.2    37    0.00   542    1     79.2   30 
18/05/22  4:00a   11.1   11.6   11.1    87    9.0   0.0   ---  0.00   0.0   ---   11.1   11.1   11.1    9.7  1030.3  0.00   0.0     0     0.00      0     0.0  0.00   0.0   0.152   0.000   25.2    37    0.00   572    1     83.6   30 
18/05/22  4:30a   10.8   11.1   10.8    88    8.9   0.0   ---  0.00   0.0   ---   10.8   10.8   10.8    9.3  1030.6  0.00   0.0     0     0.00      0     0.0  0.00   0.0   0.157   0.000   25.2    37    0.00   557    1     81.4   30 
18/05/22  5:00a   10.4   10.8   10.4    89    8.7   0.0   ---  0.00   0.0   ---   10.4   10.5   10.5    9.0  1030.7  0.00   0.0     0     0.00      0     0.0  0.00   0.0   0.166   0.000   25.1    37    0.00   511    1     74.7   30 
18/05/22  5:30a   10.1   10.4   10.1    87    8.0   0.0   ---  0.00   0.0   ---   10.1   10.2   10.2    8.7  1031.1  0.00   0.0     0     0.00      0     0.0  0.00   0.0   0.171   0.000   25.0    38    0.00   550    1     80.4   30 
18/05/22  6:00a    9.8   10.1    9.8    87    7.7   0.0   ---  0.00   0.0   ---    9.8    9.9    9.9    8.3  1031.4  0.00   0.0     0     0.00      0     0.0  0.00   0.0   0.178   0.000   24.9    38    0.00   501    1     73.2   30 
18/05/22  6:30a    8.9    9.8    8.9    88    7.0   0.0   ---  0.00   0.0   ---    8.9    8.9    8.9    7.4  1031.8  0.00   0.0     0     0.00      0     0.0  0.00   0.0   0.197   0.000   24.8    38    0.00   533    1     77.9   30 
18/05/22  7:00a    8.3    8.9    8.3    89    6.6   0.0   ---  0.00   0.0   ---    8.3    8.4    8.4    6.9  1032.0  0.00   0.0     0     0.00      0     0.0  0.00   0.0   0.208   0.000   24.7    38    0.00   533    1     77.9   30 
18/05/22  7:30a    8.4    8.4    8.0    91    7.1   0.0   ---  0.00   0.0   ---    8.4    8.6    8.6    7.1  1032.4  0.00   0.0     5     0.22     19     0.0  0.00   0.0   0.206   0.000   24.5    38    0.00   542    1     79.2   30 
18/05/22  8:00a    9.4    9.4    8.4    89    7.7   0.0   ---  0.00   0.0   ---    9.4    9.6    9.6    8.6  1032.8  0.00   0.0    35     1.51     81     0.0  0.00   0.0   0.185   0.000   24.6    38    0.00   537    1     78.5   30 
18/05/22  8:30a   11.1   11.1    9.5    81    7.9   0.0   ---  0.00   0.0   ---   11.1   10.9   10.9   12.2  1033.2  0.25   0.0   101     4.34    155     0.0  0.00   0.0   0.152   0.000   24.8    38    0.00   528    1     77.2   30 
18/05/22  9:00a   11.7   11.7   11.1    76    7.6   0.0   ---  0.00   0.0   ---   11.7   11.4   11.4   13.3  1033.5  0.00   0.0   137     5.89    200     0.0  0.00   0.0   0.138   0.000   25.1    38    0.00   484    1     70.8   30 
18/05/22  9:30a   12.8   12.8   11.7    73    8.1   0.0   ---  0.00   0.0   ---   12.8   12.4   12.4   15.8  1033.8  0.00   0.0   233    10.02    383     0.2  0.04   0.6   0.116   0.000   25.5    38    0.05   486    1     71.1   30 
18/05/22 10:00a   13.3   13.5   12.7    70    8.0   0.0   ---  0.00   0.0   ---   13.3   12.9   12.9   15.6  1034.0  0.00   0.0   211     9.07    475     0.4  0.09   0.9   0.104   0.000   25.4    37    0.00   448    1     65.5   30 
18/05/22 10:30a   13.7   13.9   13.3    66    7.5   0.0   ---  0.00   0.0   ---   13.7   13.2   13.2   16.8  1033.9  0.00   0.0   288    12.39    585     0.6  0.13   1.1   0.096   0.000   25.3    37    0.13   456    1     66.7   30 
18/05/22 11:00a   14.1   14.1   13.3    66    7.8   0.0   ---  0.00   0.0   ---   14.1   13.5   13.5   16.4  1033.8  0.00   0.0   251    10.79    647     0.8  0.17   1.5   0.089   0.000   25.3    37    0.15   438    1     64.0   30 
18/05/22 11:30a   13.7   14.6   13.7    64    7.0   0.0   ---  0.00   0.0   ---   13.7   13.1   13.1   15.1  1034.0  0.00   0.0   197     8.47    693     0.4  0.09   1.6   0.097   0.000   25.3    37    0.00   495    1     72.4   30 
18/05/22 12:00p   14.2   14.2   13.6    60    6.5   0.0   ---  0.00   0.0   ---   14.2   13.4   13.4   15.8  1033.6  0.00   0.0   228     9.81    591     1.0  0.21   1.7   0.087   0.000   25.2    37    0.13   467    1     68.3   30 
18/05/22 12:30p   13.5   14.2   13.3    75    9.2   0.0   ---  0.00   0.0   ---   13.5   13.2   13.2   15.3  1033.5  0.00   0.0   205     8.82    538     0.7  0.15   1.6   0.101   0.000   25.3    37    0.00   497    1     72.7   30 
18/05/22  1:00p   14.1   14.1   13.4    62    6.9   0.0   ---  0.00   0.0   ---   14.1   13.4   13.4   15.2  1033.3  0.00   0.0   183     7.87    573     0.9  0.19   1.7   0.088   0.000   25.3    38    0.13   465    1     68.0   30 
18/05/22  1:30p   14.5   14.7   14.1    60    6.8   0.0   ---  0.00   0.0   ---   14.5   13.8   13.8   15.9  1033.2  0.00   0.0   206     8.86    334     0.6  0.13   1.2   0.080   0.000   25.2    38    0.00   457    1     66.8   30 
18/05/22  2:00p   14.9   14.9   14.4    60    7.2   0.0   ---  0.00   0.0   ---   14.9   14.2   14.2   17.9  1033.3  0.00   0.0   303    13.03    452     1.0  0.21   1.3   0.071   0.000   25.2    38    0.15   474    1     69.3   30 
18/05/22  2:30p   14.7   15.4   14.7    59    6.8   0.0   ---  0.00   0.0   ---   14.7   13.9   13.9   18.3  1033.5  0.00   0.0   345    14.84    522     0.8  0.17   1.2   0.075   0.000   25.3    37    0.00   442    1     64.6   30 
18/05/22  3:00p   13.8   14.7   13.8    67    7.8   0.0   ---  0.00   0.0   ---   13.8   13.3   13.3   14.3  1034.0  0.00   0.0   108     4.64    162     0.0  0.00   0.0   0.094   0.000   25.2    37    0.13   431    1     63.0   30 
18/05/22  3:30p   13.7   13.8   13.7    69    8.1   0.0   ---  0.00   0.0   ---   13.7   13.3   13.3   14.3  1034.2  0.00   0.0   100     4.30    172     0.0  0.00   0.0   0.096   0.000   25.2    37    0.00   451    1     65.9   30 
18/05/22  4:00p   13.8   13.9   13.7    62    6.7   0.0   ---  0.00   0.0   ---   13.8   13.2   13.2   14.1  1034.4  0.00   0.0    91     3.91    218     0.0  0.00   0.0   0.094   0.000   25.2    38    0.05   452    1     66.1   30 
18/05/22  4:30p   13.0   13.8   13.0    70    7.7   0.0   ---  0.00   0.0   ---   13.0   12.6   12.6   12.1  1034.8  0.00   0.0    29     1.25     32     0.0  0.00   0.0   0.111   0.000   25.3    37    0.00   507    1     74.1   30 
18/05/22  5:00p   12.6   12.9   12.6    72    7.7   0.0   ---  0.00   0.0   ---   12.6   12.2   12.2   10.9  1035.1  0.00   0.0    19     0.82     28     0.0  0.00   0.0   0.119   0.000   25.3    38    0.03   533    1     77.9   30 
18/05/22  5:30p   12.4   12.6   12.4    73    7.7   0.0   ---  0.00   0.0   ---   12.4   12.1   12.1   10.6  1035.6  0.00   0.0     2     0.09      9     0.0  0.00   0.0   0.124   0.000   25.4    37    0.00   527    1     77.0   30 
18/05/22  6:00p   11.8   12.4   11.8    73    7.1   0.0   ---  0.00   0.0   ---   11.8   11.5   11.5    9.9  1035.9  0.25   0.0     0     0.00      0     0.0  0.00   0.0   0.135   0.000   25.5    37    0.00   477    1     69.7   30 
18/05/22  6:30p   11.2   11.8   11.2    78    7.5   0.0   ---  0.00   0.0   ---   11.2   11.0   11.0    9.5  1036.0  0.00   0.0     0     0.00      0     0.0  0.00   0.0   0.149   0.000   25.4    37    0.00   486    1     71.1   30 
18/05/22  7:00p   10.7   11.2   10.7    79    7.2   0.0   ---  0.00   0.0   ---   10.7   10.6   10.6    9.1  1036.3  0.00   0.0     0     0.00      0     0.0  0.00   0.0   0.159   0.000   25.6    37    0.03   453    1     66.2   30 
18/05/22  7:30p   10.2   10.7   10.2    81    7.1   0.0   ---  0.00   0.0   ---   10.2   10.2   10.2    8.7  1036.8  0.00   0.0     0     0.00      0     0.0  0.00   0.0   0.169   0.000   25.7    37    0.00   440    1     64.3   30 
18/05/22  8:00p    9.5   10.2    9.5    83    6.8   0.0   ---  0.00   0.0   ---    9.5    9.5    9.5    7.9  1036.9  0.00   0.0     0     0.00      0     0.0  0.00   0.0   0.184   0.000   25.6    37    0.03   506    1     74.0   30 
18/05/22  8:30p    9.1    9.5    9.1    86    6.8   0.0   ---  0.00   0.0   ---    9.1    9.1    9.1    7.6  1037.1  0.00   0.0     0     0.00      0     0.0  0.00   0.0   0.193   0.000   25.5    37    0.00   519    1     75.9   30 
18/05/22  9:00p    8.3    9.1    8.3    88    6.5   0.0   ---  0.00   0.0   ---    8.3    8.4    8.4    6.8  1037.4  0.00   0.0     0     0.00      0     0.0  0.00   0.0   0.208   0.000   25.4    37    0.00   530    1     77.5   30 
18/05/22  9:30p    7.7    8.3    7.7    89    6.0   0.0   ---  0.00   0.0   ---    7.7    7.8    7.8    6.2  1037.6  0.00   0.0     0     0.00      0     0.0  0.00   0.0   0.221   0.000   25.3    37    0.00   532    1     77.8   30 
18/05/22 10:00p    7.2    7.7    7.2    90    5.7   0.0   ---  0.00   0.0   ---    7.2    7.3    7.3    5.7  1037.6  0.00   0.0     0     0.00      0     0.0  0.00   0.0   0.231   0.000   25.1    36    0.00   546    1     79.8   30 
18/05/22 10:30p    6.8    7.3    6.8    91    5.4   0.0   ---  0.00   0.0   ---    6.8    6.8    6.8    5.2  1037.9  0.00   0.0     0     0.00      0     0.0  0.00   0.0   0.241   0.000   25.0    36    0.00   539    1     78.8   30 
18/05/22 11:00p    6.4    6.8    6.4    91    5.1   0.0   ---  0.00   0.0   ---    6.4    6.5    6.5    4.9  1037.9  0.00   0.0     0     0.00      0     0.0  0.00   0.0   0.248   0.000   24.8    36    0.00   540    1     78.9   30 
18/05/22 11:30p    6.3    6.4    6.2    92    5.1   0.0   ---  0.00   0.0   ---    6.3    6.3    6.3    4.7  1037.9  0.00   0.0     0     0.00      0     0.0  0.00   0.0   0.251   0.000   24.6    36    0.00   556    1     81.3   30 
19/05/22 12:00a    6.7    6.7    6.3    93    5.7   0.0   ---  0.00   0.0   ---    6.7    6.8    6.8    5.3  1038.0  0.00   0.0     0     0.00      0     0.0  0.00   0.0   0.242   0.000   24.5    36    0.00   571    1     83.5   30 
19/05/22 12:30a    6.2    6.7    6.2    92    5.0   0.0   ---  0.00   0.0   ---    6.2    6.3    6.3    4.7  1038.5  0.00   0.0     0     0.00      0     0.0  0.00   0.0   0.252   0.000   24.4    36    0.00   561    1     82.0   30 
19/05/22  1:00a    5.8    6.2    5.8    93    4.7   0.0   ---  0.00   0.0   ---    5.8    5.8    5.8    4.2  1038.3  0.00   0.0     0     0.00      0     0.0  0.00   0.0   0.262   0.000   24.3    36    0.00   548    1     80.1   30 
19/05/22  1:30a    5.9    5.9    5.7    94    5.0   0.0   ---  0.00   0.0   ---    5.9    5.9    5.9    4.3  1038.4  0.00   0.0     0     0.00      0     0.0  0.00   0.0   0.259   0.000   24.1    36    0.00   554    1     81.0   30 
19/05/22  2:00a    5.6    5.9    5.6    93    4.5   0.0   ---  0.00   0.0   ---    5.6    5.6    5.6    4.0  1038.7  0.00   0.0     0     0.00      0     0.0  0.00   0.0   0.266   0.000   24.0    36    0.00   576    1     84.2   30 
19/05/22  2:30a    4.9    5.6    4.9    94    4.1   0.0   ---  0.00   0.0   ---    4.9    5.0    5.0    3.4  1039.0  0.00   0.0     0     0.00      0     0.0  0.00   0.0   0.279   0.000   23.9    36    0.00   570    1     83.3   30 
19/05/22  3:00a    4.6    4.9    4.6    94    3.7   0.0   ---  0.00   0.0   ---    4.6    4.6    4.6    2.9  1039.2  0.00   0.0     0     0.00      0     0.0  0.00   0.0   0.287   0.000   23.8    36    0.00   558    1     81.6   30 
19/05/22  3:30a    4.2    4.6    4.2    94    3.3   0.0   ---  0.00   0.0   ---    4.2    4.2    4.2    2.5  1039.3  0.00   0.0     0     0.00      0     0.0  0.00   0.0   0.295   0.000   23.6    36    0.00   554    1     81.0   30 
19/05/22  4:00a    3.7    4.2    3.7    94    2.8   0.0   ---  0.00   0.0   ---    3.7    3.7    3.7    2.1  1039.3  0.00   0.0     0     0.00      0     0.0  0.00   0.0   0.304   0.000   23.5    36    0.00   563    1     82.3   30 
19/05/22  4:30a    3.9    3.9    3.7    95    3.2   0.0   ---  0.00   0.0   ---    3.9    3.9    3.9    2.3  1039.5  0.00   0.0     0     0.00      0     0.0  0.00   0.0   0.300   0.000   23.4    36    0.00   571    1     83.5   30 
19/05/22  5:00a    4.2    4.4    3.9    95    3.4   0.0   ---  0.00   0.0   ---    4.2    4.2    4.2    2.5  1039.7  0.00   0.0     0     0.00      0     0.0  0.00   0.0   0.295   0.000   23.3    36    0.00   580    1     84.8   30 
19/05/22  5:30a    4.8    4.8    4.2    95    4.1   0.0   ---  0.00   0.0   ---    4.8    4.9    4.9    3.3  1040.1  0.25   0.0     0     0.00      0     0.0  0.00   0.0   0.281   0.000   23.2    36    0.00   589    1     86.1   30 
19/05/22  6:00a    5.5    5.5    4.8    96    4.9   0.0   ---  0.00   0.0   ---    5.5    5.6    5.6    3.9  1040.3  0.00   0.0     0     0.00      0     0.0  0.00   0.0   0.267   0.000   23.1    36    0.00   589    1     86.1   30 
19/05/22  6:30a    5.8    5.8    5.6    95    5.0   0.0   ---  0.00   0.0   ---    5.8    5.8    5.8    4.2  1040.7  0.00   0.0     0     0.00      0     0.0  0.00   0.0   0.262   0.000   23.1    36    0.00   578    1     84.5   30 
19/05/22  7:00a    5.8    5.8    5.8    96    5.2   0.0   ---  0.00   0.0   ---    5.8    5.9    5.9    4.3  1041.0  0.00   0.0     0     0.00      0     0.0  0.00   0.0   0.260   0.000   23.1    36    0.00   563    1     82.3   30 
19/05/22  7:30a    5.3    5.8    5.3    95    4.6   0.0   ---  0.00   0.0   ---    5.3    5.4    5.4    3.9  1041.7  0.00   0.0     8     0.34     18     0.0  0.00   0.0   0.271   0.000   23.1    36    0.00   553    1     80.8   30 
19/05/22  8:00a    5.8    5.8    5.3    96    5.2   0.0   ---  0.00   0.0   ---    5.8    5.9    5.9    4.6  1042.2  0.00   0.0    24     1.03     39     0.0  0.00   0.0   0.260   0.000   23.2    36    0.00   556    1     81.3   30 
19/05/22  8:30a    6.7    6.7    5.8    96    6.1   0.0   ---  0.00   0.0   ---    6.7    6.8    6.8    6.9  1042.6  0.00   0.0    52     2.24    100     0.0  0.00   0.0   0.243   0.000   23.5    36    0.00   526    1     76.9   30 
19/05/22  9:00a    8.0    8.0    6.7    97    7.6   0.0   ---  0.00   0.0   ---    8.0    8.2    8.2    9.6  1042.9  0.00   0.0   113     4.86    155     0.0  0.00   0.0   0.215   0.000   23.9    36    0.03   532    1     77.8   30 
19/05/22  9:30a    9.1    9.1    8.0    97    8.7   0.0   ---  0.00   0.0   ---    9.1    9.4    9.4   11.7  1042.8  0.00   0.0   175     7.53    336     0.1  0.02   0.5   0.192   0.000   24.3    36    0.00   519    1     75.9   30 
19/05/22 10:00a   10.3   10.3    9.1    97    9.9   0.0   ---  0.00   0.0   ---   10.3   10.6   10.6   15.1  1042.8  0.00   0.0   333    14.32    527     0.6  0.13   0.9   0.167   0.000   24.8    36    0.10   477    1     69.7   30 
19/05/22 10:30a   10.9   10.9   10.3    91    9.5   0.0   ---  0.00   0.0   ---   10.9   11.1   11.1   13.1  1043.0  0.00   0.0   179     7.70    366     0.5  0.11   0.8   0.154   0.000   25.4    37    0.00   425    1     62.1   30 
19/05/22 11:00a   12.0   12.0   11.0    82    9.0   0.0   ---  0.00   0.0   ---   12.0   11.9   11.9   14.9  1043.1  0.00   0.0   251    10.79    413     0.8  0.17   1.1   0.132   0.000   25.3    37    0.10   439    1     64.2   30 
19/05/22 11:30a   13.0   13.0   12.0    76    8.9   0.0   ---  0.00   0.0   ---   13.0   12.7   12.7   16.2  1043.1  0.00   0.0   293    12.60    411     1.1  0.24   1.6   0.111   0.000   25.3    37    0.00   437    1     63.9   30 
19/05/22 12:00p   12.6   13.0   12.4    79    9.1   0.0   ---  0.00   0.0   ---   12.6   12.4   12.4   13.9  1043.0  0.00   0.0   164     7.05    230     0.5  0.11   1.0   0.119   0.000   25.2    38    0.13   378    1     55.3   30 
19/05/22 12:30p   13.3   13.3   12.6    77    9.4   0.0   ---  0.00   0.0   ---   13.3   13.1   13.1   15.4  1042.8  0.00   0.0   225     9.68    304     0.9  0.19   1.1   0.104   0.000   25.3    38    0.00   340    1     49.7   30 
19/05/22  1:00p   14.0   14.0   13.3    73    9.2   0.0   ---  0.00   0.0   ---   14.0   13.7   13.7   16.2  1042.6  0.00   0.0   236    10.15    279     0.9  0.19   1.1   0.090   0.000   25.2    38    0.13   316    1     46.2   30 
19/05/22  1:30p   13.9   14.0   13.8    71    8.7   0.0   ---  0.00   0.0   ---   13.9   13.5   13.5   14.3  1042.6  0.00   0.0   116     4.99    167     0.2  0.04   0.7   0.093   0.000   25.2    38    0.00   357    1     52.2   30 
19/05/22  2:00p   13.8   14.1   13.8    73    9.0   0.0   ---  0.00   0.0   ---   13.8   13.4   13.4   14.8  1042.9  0.00   0.0   146     6.28    169     0.2  0.04   0.6   0.095   0.000   25.2    38    0.08   386    1     56.4   30 
19/05/22  2:30p   14.2   14.2   13.7    69    8.6   0.0   ---  0.00   0.0   ---   14.2   13.8   13.8   15.9  1042.9  0.00   0.0   184     7.91    220     0.6  0.13   0.7   0.086   0.000   25.2    38    0.00   399    1     58.3   30 
19/05/22  3:00p   13.9   14.3   13.9    66    7.6   0.0   ---  0.00   0.0   ---   13.9   13.3   13.3   14.4  1043.1  0.00   0.0   113     4.86    225     0.0  0.00   0.5   0.093   0.000   25.3    38    0.08   410    1     59.9   30 
19/05/22  3:30p   14.3   14.3   13.9    64    7.6   0.0   ---  0.00   0.0   ---   14.3   13.7   13.7   15.2  1043.2  0.00   0.0   130     5.59    142     0.0  0.00   0.0   0.084   0.000   25.2    38    0.00   386    1     56.4   30 
19/05/22  4:00p   13.9   14.3   13.9    65    7.5   0.0   ---  0.00   0.0   ---   13.9   13.4   13.4   14.3  1043.5  0.00   0.0    91     3.91    123     0.0  0.00   0.0   0.091   0.000   25.3    37    0.08   307    1     44.9   30 
19/05/22  4:30p   13.7   13.9   13.7    68    7.9   0.0   ---  0.00   0.0   ---   13.7   13.2   13.2   13.2  1043.9  0.00   0.0    41     1.76     56     0.0  0.00   0.0   0.096   0.000   25.3    37    0.00   283    1     41.4   30 
19/05/22  5:00p   13.5   13.7   13.5    70    8.1   0.0   ---  0.00   0.0   ---   13.5   13.1   13.1   11.7  1044.1  0.00   0.0    15     0.65     21     0.0  0.00   0.0   0.101   0.000   25.3    37    0.03   278    1     40.6   30 
19/05/22  5:30p   13.3   13.5   13.3    70    7.9   0.0   ---  0.00   0.0   ---   13.3   12.8   12.8   11.3  1044.4  0.00   0.0     0     0.00      5     0.0  0.00   0.0   0.105   0.000   25.4    37    0.00   328    1     48.0   30 
19/05/22  6:00p   13.2   13.3   13.2    72    8.2   0.0   ---  0.00   0.0   ---   13.2   12.8   12.8   11.2  1044.8  0.00   0.0     0     0.00      0     0.0  0.00   0.0   0.108   0.000   25.4    37    0.00   345    1     50.4   30